Radiosonde details



Informationen :

Serial : V2951471
Type : Vaisala RS41-SGP
Date of production : 21.07.2023
Frequency : 403.000MHz
Launchsite : Galeao
Nearest town : Iguaba Grande, BR (4.2km)

Altitude (Max) : 27998m at 2026-09-05 12:54:58
Speed (Max) : 156km/h at altitude 12016m

Average speed : 73km/h
Average ascent rate : 6m/s
Average descent rate : -17m/s
Ascent rate (Max) : 54.7m/s
Descent rate (Max): -34.4m/s

First frame :
PU1XMG-16 at 2026-09-05 11:32:07 at altitude 237m (OG: 186m)
Last frame :
PU1XMG-16 at 2026-09-05 13:13:11 at altitude 9891m (OG: 9817m)

Flighttime : 1h41m4s
Ascent time : 1h22m51s
Descent time : 18m13s
Uptime : -
Killtimer : 8h13m

Distance (Straight line distance): 106km

Distance (Route):


Frames : 768


Measurement :

Temperature : -34.1°C
Humidity : 3.5%
Pressure : 289.7hPa


Vertical profile (SkewT) :


Elevation profile :



Receiving stations :


Receiver Frames First received Last received
PU1XMG-16 768 2026-09-05 11:32:07 2026-09-05 13:13:11

Share per receiver :



All frames :


Receiver Date Latitude Longitude Direction Speed Altitude Climb Temperature Humidity Pressure Voltage Killtimer Uptime BKT XDATA
PU1XMG-162026-09-05 13:13:11-22.80489-42.2126394°139km/h9891m-14.7m/s-34.1°C3.5%289.7hPa0V00:00:0000:00:0000:00:00
PU1XMG-162026-09-05 13:13:01-22.80477-42.2161092°139km/h10012m-13.9m/s-34.7°C3.1%284.7hPa0V00:00:0000:00:0000:00:00
PU1XMG-162026-09-05 13:12:53-22.80478-42.2192589°144km/h10117m-14.1m/s-35.0°C3.3%280.4hPa0V00:00:0000:00:0000:00:00
PU1XMG-162026-09-05 13:12:44-22.80490-42.2228489°146km/h10238m-13.1m/s-35.6°C3.4%275.6hPa0V08:13:0000:00:0000:00:00
PU1XMG-162026-09-05 13:12:26-22.80506-42.2304191°146km/h10481m-13.2m/s-37.8°C4.6%266.2hPa0V08:13:0000:00:0000:00:00
PU1XMG-162026-09-05 13:11:57-22.80559-42.2416086°144km/h10866m-14.9m/s-40.9°C4.9%251.8hPa0V00:00:0000:00:0000:00:00
PU1XMG-162026-09-05 13:11:51-22.80575-42.2439787°144km/h10942m-12.7m/s-41.5°C5.3%249.0hPa0V00:00:0000:00:0000:00:00
PU1XMG-162026-09-05 13:11:45-22.80587-42.2463489°144km/h11020m-13.7m/s-42.1°C5.2%246.1hPa0V00:00:0000:00:0000:00:00
PU1XMG-162026-09-05 13:11:40-22.80592-42.2482890°144km/h11083m-12.5m/s-42.6°C5.7%243.7hPa0V00:00:0000:00:0000:00:00
PU1XMG-162026-09-05 13:11:35-22.80597-42.2506190°141km/h11164m-15.5m/s-43.3°C6.1%240.9hPa0V00:00:0000:00:0000:00:00
PU1XMG-162026-09-05 13:11:28-22.80603-42.2529489°141km/h11252m-15.1m/s-44.0°C7.0%237.7hPa0V00:00:0000:00:0000:00:00
PU1XMG-162026-09-05 13:11:22-22.80610-42.2552588°141km/h11337m-13.3m/s-44.8°C7.7%234.7hPa0V00:00:0000:00:0000:00:00
PU1XMG-162026-09-05 13:11:16-22.80611-42.2574992°137km/h11410m-11.7m/s-45.2°C7.9%232.1hPa0V00:00:0000:00:0000:00:00
PU1XMG-162026-09-05 13:11:11-22.80605-42.2597291°135km/h11488m-14.7m/s-45.7°C7.8%229.5hPa0V00:00:0000:00:0000:00:00
PU1XMG-162026-09-05 13:11:04-22.80597-42.2619793°137km/h11563m-11.5m/s-46.1°C7.6%226.8hPa0V00:00:0000:00:0000:00:00
PU1XMG-162026-09-05 13:10:59-22.80587-42.2642794°141km/h11634m-12.0m/s-46.6°C7.6%224.4hPa0V00:00:0000:00:0000:00:00
PU1XMG-162026-09-05 13:07:40-22.81023-42.3350673°108km/h14356m-12.5m/s-64.4°C11.3%146.8hPa0V08:18:0000:00:0000:00:00
PU1XMG-162026-09-05 13:07:35-22.81078-42.3370274°106km/h14443m-13.0m/s-65.0°C11.6%145.4hPa0V08:18:0000:00:0000:00:00
PU1XMG-162026-09-05 13:07:28-22.81099-42.3378676°104km/h14481m-13.5m/s-65.4°C11.5%143.6hPa0V08:18:0000:00:0000:00:00
PU1XMG-162026-09-05 13:07:23-22.81133-42.3395279°102km/h14557m-12.8m/s-65.7°C11.3%141.8hPa0V08:18:0000:00:0000:00:00
PU1XMG-162026-09-05 13:07:17-22.81155-42.3408584°95km/h14620m-13.1m/s-65.7°C11.0%140.3hPa0V08:18:0000:00:0000:00:00
PU1XMG-162026-09-05 13:07:12-22.81172-42.3424084°95km/h14697m-13.2m/s-66.2°C11.0%138.5hPa0V08:18:0000:00:0000:00:00
PU1XMG-162026-09-05 13:07:06-22.81182-42.3436788°93km/h14760m-13.0m/s-66.7°C11.1%137.1hPa0V08:18:0000:00:0000:00:00
PU1XMG-162026-09-05 13:07:01-22.81187-42.3449391°89km/h14823m-12.9m/s-67.2°C11.3%135.7hPa0V08:18:0000:00:0000:00:00
PU1XMG-162026-09-05 13:06:57-22.81187-42.3461692°91km/h14887m-13.0m/s-67.6°C11.2%134.3hPa0V08:18:0000:00:0000:00:00
PU1XMG-162026-09-05 13:06:51-22.81184-42.3476693°95km/h14964m-13.2m/s-68.0°C11.1%132.6hPa0V08:19:0000:00:0000:00:00
PU1XMG-162026-09-05 13:06:44-22.81177-42.3494792°97km/h15054m-13.3m/s-68.5°C11.4%130.9hPa0V08:19:0000:00:0000:00:00
PU1XMG-162026-09-05 13:06:38-22.81173-42.3508194°99km/h15118m-13.0m/s-69.0°C11.2%129.2hPa0V08:19:0000:00:0000:00:00
PU1XMG-162026-09-05 13:06:33-22.81167-42.3524393°100km/h15194m-12.9m/s-69.5°C10.9%127.6hPa0V08:19:0000:00:0000:00:00
PU1XMG-162026-09-05 13:06:27-22.81162-42.3538193°100km/h15258m-13.2m/s-70.1°C11.0%126.2hPa0V08:19:0000:00:0000:00:00
PU1XMG-162026-09-05 13:06:22-22.81156-42.3554994°102km/h15334m-13.4m/s-70.8°C11.0%124.6hPa0V08:19:0000:00:0000:00:00
PU1XMG-162026-09-05 13:06:15-22.81149-42.3571993°106km/h15412m-13.0m/s-71.3°C11.0%123.0hPa0V08:19:0000:00:0000:00:00
PU1XMG-162026-09-05 13:06:09-22.81144-42.3591991°104km/h15503m-13.3m/s-71.9°C11.2%121.1hPa0V08:19:0000:00:0000:00:00
PU1XMG-162026-09-05 13:06:03-22.81150-42.3606187°106km/h15568m-13.2m/s-72.0°C10.8%119.8hPa0V08:19:0000:00:0000:00:00
PU1XMG-162026-09-05 13:05:56-22.81168-42.3625683°102km/h15660m-13.4m/s-71.9°C10.3%117.9hPa0V00:00:0000:00:0000:00:00
PU1XMG-162026-09-05 13:05:50-22.81138-42.38914111°66km/h17646m-14.9m/s-71.6°C9.6%116.1hPa0V00:00:0000:00:0000:00:00
PU1XMG-162026-09-05 13:03:37-22.81138-42.38914111°66km/h17646m-14.9m/s-70.6°C4.1%84.0hPa0V00:00:0000:00:0000:00:00
PU1XMG-162026-09-05 13:03:30-22.81019-42.39277118°68km/h17984m-15.8m/s-68.8°C3.4%82.3hPa0V08:22:0000:00:0000:00:00
PU1XMG-162026-09-05 13:03:16-22.81019-42.39277118°68km/h17984m-15.8m/s-65.8°C2.7%79.4hPa0V08:22:0000:00:0000:00:00
PU1XMG-162026-09-05 13:02:51-22.80982-42.3956760°24km/h18369m-16.3m/s-64.4°C2.6%74.5hPa0V08:22:0000:00:0000:00:00
PU1XMG-162026-09-05 13:02:44-22.80980-42.39647115°31km/h18547m-16.8m/s-63.1°C2.2%73.2hPa0V08:22:0000:00:0000:00:00
PU1XMG-162026-09-05 13:02:38-22.80967-42.39669120°33km/h18596m-16.9m/s-62.5°C2.1%71.9hPa0V00:00:0000:00:0000:00:00
PU1XMG-162026-09-05 13:02:32-22.80941-42.39708132°33km/h18679m-16.9m/s-61.5°C1.8%70.9hPa0V00:00:0000:00:0000:00:00
PU1XMG-162026-09-05 13:02:27-22.80903-42.39756132°44km/h18778m-17.0m/s-62.4°C1.9%69.7hPa0V00:00:0000:00:0000:00:00
PU1XMG-162026-09-05 13:02:20-22.80855-42.39810137°46km/h18878m-16.9m/s-63.2°C2.0%68.7hPa0V00:00:0000:00:0000:00:00
PU1XMG-162026-09-05 13:02:12-22.80786-42.39897127°58km/h19013m-17.3m/s-64.1°C2.1%67.1hPa0V00:00:0000:00:0000:00:00
PU1XMG-162026-09-05 13:02:07-22.80734-42.39973127°55km/h19115m-17.4m/s-64.6°C2.2%66.0hPa0V00:00:0000:00:0000:00:00
PU1XMG-162026-09-05 13:02:00-22.80697-42.40046112°49km/h19217m-17.4m/s-64.4°C2.2%64.9hPa0V00:00:0000:00:0000:00:00
PU1XMG-162026-09-05 13:01:55-22.80677-42.40117107°42km/h19320m-18.2m/s-63.8°C2.1%63.8hPa0V00:00:0000:00:0000:00:00
PU1XMG-162026-09-05 13:01:49-22.80674-42.4019778°33km/h19463m-18.1m/s-63.2°C2.0%62.9hPa0V00:00:0000:00:0000:00:00
PU1XMG-162026-09-05 13:01:43-22.80679-42.4022180°27km/h19515m-18.1m/s-62.8°C1.9%61.9hPa0V00:00:0000:00:0000:00:00
PU1XMG-162026-09-05 13:01:37-22.80673-42.40260112°15km/h19642m-19.0m/s-62.7°C1.8%60.6hPa0V00:00:0000:00:0000:00:00
PU1XMG-162026-09-05 13:01:14-22.80563-42.40247184°26km/h20382m-19.7m/s-61.7°C1.6%56.5hPa0V00:00:0000:00:0000:00:00
PU1XMG-162026-09-05 13:00:58-22.80563-42.40247184°26km/h20382m-19.7m/s-62.2°C1.7%53.7hPa0V00:00:0000:00:0000:00:00
PU1XMG-162026-09-05 13:00:50-22.80517-42.40240190°4km/h20631m-19.6m/s-62.0°C1.7%52.2hPa0V08:25:0000:00:0000:00:00
PU1XMG-162026-09-05 13:00:42-22.80507-42.40242166°15km/h20708m-19.8m/s-62.4°C1.8%50.9hPa0V08:25:0000:00:0000:00:00
PU1XMG-162026-09-05 13:00:35-22.80466-42.40235203°16km/h20883m-19.1m/s-61.3°C1.6%49.8hPa0V08:25:0000:00:0000:00:00
PU1XMG-162026-09-05 13:00:27-22.80443-42.40229190°18km/h20978m-19.5m/s-61.0°C1.6%48.8hPa0V08:25:0000:00:0000:00:00
PU1XMG-162026-09-05 13:00:21-22.80416-42.40230186°13km/h21092m-19.3m/s-61.1°C1.6%47.9hPa0V08:25:0000:00:0000:00:00
PU1XMG-162026-09-05 13:00:16-22.80393-42.40221210°16km/h21203m-19.3m/s-60.9°C1.6%47.0hPa0V08:25:0000:00:0000:00:00
PU1XMG-162026-09-05 13:00:10-22.80375-42.40211207°16km/h21302m-19.1m/s-60.3°C1.5%46.3hPa0V08:25:0000:00:0000:00:00
PU1XMG-162026-09-05 13:00:05-22.80350-42.40206192°11km/h21439m-18.2m/s-60.3°C1.5%45.4hPa0V08:26:0000:00:0000:00:00
PU1XMG-162026-09-05 12:59:59-22.80345-42.40209108°5km/h21537m-18.3m/s-59.4°C1.4%44.5hPa0V08:26:0000:00:0000:00:00
PU1XMG-162026-09-05 12:59:47-22.80322-42.40186218°16km/h21733m-20.6m/s-59.1°C1.4%43.2hPa0V08:26:0000:00:0000:00:00
PU1XMG-162026-09-05 12:59:42-22.80295-42.40177178°22km/h21844m-19.1m/s-59.4°C1.4%42.4hPa0V08:26:0000:00:0000:00:00
PU1XMG-162026-09-05 12:59:37-22.80270-42.40179169°16km/h21937m-17.5m/s-59.4°C1.4%41.8hPa0V08:26:0000:00:0000:00:00
PU1XMG-162026-09-05 12:59:31-22.80250-42.40190144°15km/h22048m-20.4m/s-59.3°C1.4%41.0hPa0V08:26:0000:00:0000:00:00
PU1XMG-162026-09-05 12:59:26-22.80231-42.40199173°15km/h22140m-20.6m/s-58.8°C1.3%40.4hPa0V08:26:0000:00:0000:00:00
PU1XMG-162026-09-05 12:59:19-22.80199-42.40206148°16km/h22311m-22.5m/s-58.6°C1.4%39.6hPa0V08:26:0000:00:0000:00:00
PU1XMG-162026-09-05 12:59:13-22.80184-42.40220128°11km/h22420m-22.4m/s-57.7°C1.2%38.7hPa0V00:00:0000:00:0000:00:00
PU1XMG-162026-09-05 12:59:04-22.80177-42.40227240°5km/h22598m-22.8m/s-58.0°C1.3%37.6hPa0V00:00:0000:00:0000:00:00
PU1XMG-162026-09-05 12:58:58-22.80171-42.40214244°7km/h22737m-23.9m/s-58.1°C1.3%36.8hPa0V00:00:0000:00:0000:00:00
PU1XMG-162026-09-05 12:58:53-22.80170-42.4021227°2km/h22860m-25.3m/s-58.1°C1.3%36.1hPa0V00:00:0000:00:0000:00:00
PU1XMG-162026-09-05 12:58:47-22.80180-42.4022014°13km/h23001m-21.7m/s-57.6°C1.3%35.3hPa0V00:00:0000:00:0000:00:00
PU1XMG-162026-09-05 12:58:40-22.80208-42.40218345°16km/h23160m-25.9m/s-56.5°C1.1%34.4hPa0V00:00:0000:00:0000:00:00
PU1XMG-162026-09-05 12:58:35-22.80264-42.4021252°5km/h23665m-23.9m/s-56.8°C1.2%33.5hPa0V00:00:0000:00:0000:00:00
PU1XMG-162026-09-05 12:58:19-22.80264-42.4021252°5km/h23665m-23.9m/s-56.6°C1.2%31.7hPa0V00:00:0000:00:0000:00:00
PU1XMG-162026-09-05 12:58:02-22.80257-42.40228119°13km/h24050m-20.3m/s-54.4°C1.1%29.8hPa0V00:00:0000:00:0000:00:00
PU1XMG-162026-09-05 12:57:51-22.80270-42.40231214°5km/h24280m-19.4m/s-52.6°C0.9%28.7hPa0V00:00:0000:00:0000:00:00
PU1XMG-162026-09-05 12:57:05-22.80214-42.4057791°16km/h27137m-19.5m/s-51.9°C0.9%24.1hPa0V00:00:0000:00:0000:00:00
PU1XMG-162026-09-05 12:55:45-22.80223-42.4066079°31km/h27441m-21.9m/s-48.6°C0.8%18.2hPa0V00:00:0000:00:0000:00:00
PU1XMG-162026-09-05 12:55:31-22.80224-42.4066985°29km/h27463m-20.6m/s-47.9°C0.7%17.5hPa0V00:00:0000:00:0000:00:00
PU1XMG-162026-09-05 12:55:09-22.80223-42.40852102°37km/h27955m-34.4m/s-47.8°C0.7%16.2hPa0V00:00:0000:00:0000:00:00
PU1XMG-162026-09-05 12:54:58-22.80195-42.4094997°35km/h27998m8.8m/s-47.7°C0.7%16.0hPa0V00:00:0000:00:0000:00:00
PU1XMG-162026-09-05 12:54:48-22.80169-42.41060123°38km/h27914m8.0m/s-48.9°C0.8%16.2hPa0V00:00:0000:00:0000:00:00
PU1XMG-162026-09-05 12:53:33-22.80184-42.41588105°15km/h27359m7.5m/s-47.8°C0.7%17.7hPa0V00:00:0000:00:0000:00:00
PU1XMG-162026-09-05 12:53:24-22.80177-42.4162788°24km/h27302m7.5m/s-47.9°C0.7%17.9hPa0V00:00:0000:00:0000:00:00
PU1XMG-162026-09-05 12:53:19-22.80185-42.4166871°22km/h27261m8.8m/s-48.3°C0.7%18.0hPa0V00:00:0000:00:0000:00:00
PU1XMG-162026-09-05 12:53:13-22.80189-42.41686103°9km/h27226m6.5m/s-48.6°C0.8%18.0hPa0V00:00:0000:00:0000:00:00
PU1XMG-162026-09-05 12:53:07-22.80185-42.41710100°20km/h27182m8.9m/s-48.2°C0.8%18.2hPa0V00:00:0000:00:0000:00:00
PU1XMG-162026-09-05 12:53:02-22.80179-42.41735108°13km/h27142m8.0m/s-48.1°C0.7%18.3hPa0V00:00:0000:00:0000:00:00
PU1XMG-162026-09-05 12:52:57-22.80174-42.41753100°16km/h27110m8.2m/s-48.0°C0.7%18.4hPa0V00:00:0000:00:0000:00:00
PU1XMG-162026-09-05 12:52:49-22.80182-42.4179789°16km/h27058m5.3m/s-47.6°C0.7%18.6hPa0V00:00:0000:00:0000:00:00
PU1XMG-162026-09-05 12:52:32-22.80195-42.41881104°20km/h26948m6.7m/s-47.5°C0.7%18.9hPa0V00:00:0000:00:0000:00:00
PU1XMG-162026-09-05 12:51:26-22.80153-42.42081124°20km/h26520m6.3m/s-49.5°C0.8%20.2hPa0V00:00:0000:00:0000:00:00
PU1XMG-162026-09-05 12:51:19-22.80141-42.4211895°16km/h26464m6.3m/s-49.9°C0.8%20.3hPa0V00:00:0000:00:0000:00:00
PU1XMG-162026-09-05 12:51:07-22.80096-42.42164118°24km/h26382m6.1m/s-50.6°C0.8%20.6hPa0V00:00:0000:00:0000:00:00
PU1XMG-162026-09-05 12:51:01-22.80090-42.42198104°26km/h26340m5.9m/s-50.8°C0.9%20.7hPa0V00:00:0000:00:0000:00:00
PU1XMG-162026-09-05 12:50:55-22.80079-42.42227121°26km/h26303m6.0m/s-50.8°C0.8%20.9hPa0V00:00:0000:00:0000:00:00
PU1XMG-162026-09-05 12:50:50-22.80056-42.42256124°24km/h26261m6.6m/s-50.8°C0.8%21.0hPa0V00:00:0000:00:0000:00:00
PU1XMG-162026-09-05 12:50:44-22.80046-42.42280110°22km/h26227m5.9m/s-51.0°C0.8%21.1hPa0V00:00:0000:00:0000:00:00
PU1XMG-162026-09-05 12:50:39-22.80025-42.42301154°16km/h26185m5.7m/s-51.6°C0.9%21.2hPa0V00:00:0000:00:0000:00:00
PU1XMG-162026-09-05 12:49:53-22.79889-42.42401142°5km/h25862m7.0m/s-52.1°C0.9%22.3hPa0V00:00:0000:00:0000:00:00
PU1XMG-162026-09-05 12:49:46-22.79877-42.42407182°24km/h25805m5.4m/s-51.9°C0.9%22.5hPa0V00:00:0000:00:0000:00:00
PU1XMG-162026-09-05 12:49:40-22.79850-42.42412116°9km/h25762m7.9m/s-51.6°C0.9%22.7hPa0V00:00:0000:00:0000:00:00
PU1XMG-162026-09-05 12:49:34-22.79845-42.42425144°13km/h25728m5.2m/s-51.7°C0.9%22.8hPa0V00:00:0000:00:0000:00:00
PU1XMG-162026-09-05 12:49:30-22.79825-42.42436163°20km/h25693m5.4m/s-52.0°C0.9%22.9hPa0V00:00:0000:00:0000:00:00
PU1XMG-162026-09-05 12:49:22-22.79803-42.42467101°20km/h25637m6.3m/s-52.2°C0.9%23.1hPa0V00:00:0000:00:0000:00:00
PU1XMG-162026-09-05 12:49:16-22.79783-42.42484160°27km/h25596m6.0m/s-52.3°C0.9%23.3hPa0V00:00:0000:00:0000:00:00
PU1XMG-162026-09-05 12:49:10-22.79725-42.42501187°18km/h25523m7.5m/s-52.6°C1.0%23.4hPa0V00:00:0000:00:0000:00:00
PU1XMG-162026-09-05 12:49:02-22.79711-42.42503162°16km/h25503m7.4m/s-52.3°C0.9%23.6hPa0V00:00:0000:00:0000:00:00
PU1XMG-162026-09-05 12:48:56-22.79695-42.42517132°16km/h25469m7.3m/s-52.1°C1.0%23.8hPa0V00:00:0000:00:0000:00:00
PU1XMG-162026-09-05 12:48:51-22.79680-42.42526183°13km/h25428m9.0m/s-51.9°C0.9%23.9hPa0V00:00:0000:00:0000:00:00
PU1XMG-162026-09-05 12:48:45-22.79661-42.42533117°9km/h25388m8.9m/s-51.6°C0.9%24.1hPa0V00:00:0000:00:0000:00:00
PU1XMG-162026-09-05 12:48:39-22.79661-42.4254584°5km/h25353m8.3m/s-51.3°C1.0%24.2hPa0V00:00:0000:00:0000:00:00
PU1XMG-162026-09-05 12:48:33-22.79644-42.42563152°16km/h25307m6.9m/s-51.3°C0.9%24.4hPa0V00:00:0000:00:0000:00:00
PU1XMG-162026-09-05 12:48:27-22.79640-42.4257426°2km/h25267m6.2m/s-51.3°C0.9%24.5hPa0V00:00:0000:00:0000:00:00
PU1XMG-162026-09-05 12:48:20-22.79634-42.42583152°13km/h25220m7.9m/s-51.5°C0.9%24.7hPa0V00:00:0000:00:0000:00:00
PU1XMG-162026-09-05 12:48:13-22.79627-42.4259123°9km/h25175m7.5m/s-51.5°C0.9%24.9hPa0V00:00:0000:00:0000:00:00
PU1XMG-162026-09-05 12:48:06-22.79639-42.4259876°5km/h25136m7.4m/s-51.7°C0.9%25.0hPa0V00:00:0000:00:0000:00:00
PU1XMG-162026-09-05 12:47:59-22.79649-42.4260433°7km/h25091m6.2m/s-51.6°C0.9%25.2hPa0V00:00:0000:00:0000:00:00
PU1XMG-162026-09-05 12:47:55-22.79655-42.4260636°4km/h25058m4.7m/s-51.9°C0.9%25.3hPa0V00:00:0000:00:0000:00:00
PU1XMG-162026-09-05 12:47:49-22.79662-42.4260741°5km/h25021m7.0m/s-51.9°C0.9%25.5hPa0V00:00:0000:00:0000:00:00
PU1XMG-162026-09-05 12:47:44-22.79662-42.42608224°4km/h24988m6.5m/s-51.7°C0.9%25.6hPa0V00:00:0000:00:0000:00:00
PU1XMG-162026-09-05 12:47:38-22.79662-42.42598316°7km/h24952m8.9m/s-51.7°C1.0%25.8hPa0V00:00:0000:00:0000:00:00
PU1XMG-162026-09-05 12:47:31-22.79677-42.4260224°11km/h24916m6.8m/s-51.4°C0.9%26.0hPa0V00:00:0000:00:0000:00:00
PU1XMG-162026-09-05 12:47:26-22.79690-42.42602284°7km/h24896m4.2m/s-51.5°C0.9%26.2hPa0V00:00:0000:00:0000:00:00
PU1XMG-162026-09-05 12:47:20-22.79710-42.4259730°11km/h24888m5.9m/s-51.7°C1.0%26.3hPa0V00:00:0000:00:0000:00:00
PU1XMG-162026-09-05 12:47:13-22.79731-42.4260743°4km/h24883m8.1m/s-52.0°C0.9%26.5hPa0V00:00:0000:00:0000:00:00
PU1XMG-162026-09-05 12:47:08-22.79740-42.42607301°5km/h24916m6.9m/s-51.8°C0.9%26.6hPa0V00:00:0000:00:0000:00:00
PU1XMG-162026-09-05 12:47:03-22.79738-42.42668153°77km/h24836m54.7m/s-51.9°C0.9%26.7hPa0V00:00:0000:00:0000:00:00
PU1XMG-162026-09-05 12:46:57-22.79721-42.42622336°7km/h24675m8.2m/s-52.0°C0.9%26.9hPa0V00:00:0000:00:0000:00:00
PU1XMG-162026-09-05 12:46:53-22.79727-42.42617348°4km/h24642m6.1m/s-52.2°C0.9%27.1hPa0V00:00:0000:00:0000:00:00
PU1XMG-162026-09-05 12:46:46-22.79729-42.42625134°7km/h24600m7.5m/s-52.2°C1.0%27.2hPa0V00:00:0000:00:0000:00:00
PU1XMG-162026-09-05 12:46:40-22.79714-42.42620206°9km/h24562m5.1m/s-52.4°C0.9%27.4hPa0V00:00:0000:00:0000:00:00
PU1XMG-162026-09-05 12:46:36-22.79711-42.42615118°2km/h24528m6.1m/s-52.4°C0.9%27.5hPa0V00:00:0000:00:0000:00:00
PU1XMG-162026-09-05 12:46:30-22.79700-42.42613176°11km/h24491m5.0m/s-52.8°C1.0%27.7hPa0V00:00:0000:00:0000:00:00
PU1XMG-162026-09-05 12:46:24-22.79693-42.426120km/h24450m7.8m/s-53.1°C1.0%27.9hPa0V00:00:0000:00:0000:00:00
PU1XMG-162026-09-05 12:46:18-22.79695-42.42614276°5km/h24413m8.0m/s-53.4°C1.0%28.0hPa0V00:00:0000:00:0000:00:00
PU1XMG-162026-09-05 12:46:12-22.79695-42.42604293°7km/h24373m4.6m/s-53.2°C1.0%28.2hPa0V00:00:0000:00:0000:00:00
PU1XMG-162026-09-05 12:46:07-22.79704-42.42602336°13km/h24339m4.8m/s-53.2°C1.0%28.4hPa0V00:00:0000:00:0000:00:00
PU1XMG-162026-09-05 12:46:00-22.79710-42.425910km/h24293m7.5m/s-53.4°C1.0%28.6hPa0V00:00:0000:00:0000:00:00
PU1XMG-162026-09-05 12:45:53-22.79716-42.4259524°7km/h24257m6.4m/s-53.6°C1.0%28.7hPa0V00:00:0000:00:0000:00:00
PU1XMG-162026-09-05 12:45:48-22.79716-42.4259999°5km/h24219m8.5m/s-54.3°C1.0%28.9hPa0V00:00:0000:00:0000:00:00
PU1XMG-162026-09-05 12:45:42-22.79718-42.4261682°18km/h24179m7.0m/s-54.8°C1.1%29.1hPa0V00:00:0000:00:0000:00:00
PU1XMG-162026-09-05 12:45:36-22.79718-42.4263493°11km/h24147m7.1m/s-55.1°C1.1%29.3hPa0V00:00:0000:00:0000:00:00
PU1XMG-162026-09-05 12:45:31-22.79718-42.4264048°7km/h24107m6.6m/s-55.3°C1.1%29.5hPa0V00:00:0000:00:0000:00:00
PU1XMG-162026-09-05 12:45:25-22.79725-42.4264743°5km/h24075m7.6m/s-55.4°C1.1%29.6hPa0V00:00:0000:00:0000:00:00
PU1XMG-162026-09-05 12:45:21-22.79719-42.42654142°15km/h24043m7.0m/s-55.6°C1.1%29.7hPa0V00:00:0000:00:0000:00:00
PU1XMG-162026-09-05 12:45:15-22.79713-42.4266784°9km/h24008m8.0m/s-55.8°C1.1%29.9hPa0V00:00:0000:00:0000:00:00
PU1XMG-162026-09-05 12:45:09-22.79710-42.42677144°11km/h23969m8.8m/s-56.2°C1.2%30.1hPa0V00:00:0000:00:0000:00:00
PU1XMG-162026-09-05 12:45:04-22.79702-42.4268036°4km/h23930m5.0m/s-56.4°C1.2%30.2hPa0V00:00:0000:00:0000:00:00
PU1XMG-162026-09-05 12:44:59-22.79709-42.4267930°7km/h23898m7.3m/s-56.6°C1.2%30.4hPa0V00:00:0000:00:0000:00:00
PU1XMG-162026-09-05 12:44:53-22.79708-42.42685168°11km/h23867m5.7m/s-56.7°C1.2%30.6hPa0V00:00:0000:00:0000:00:00
PU1XMG-162026-09-05 12:44:48-22.79695-42.42682241°11km/h23834m5.3m/s-56.9°C1.2%30.8hPa0V00:00:0000:00:0000:00:00
PU1XMG-162026-09-05 12:44:43-22.79695-42.4267693°5km/h23795m9.1m/s-57.0°C1.2%30.9hPa0V00:00:0000:00:0000:00:00
PU1XMG-162026-09-05 12:44:36-22.79690-42.426840km/h23755m7.1m/s-57.1°C1.2%31.2hPa0V00:00:0000:00:0000:00:00
PU1XMG-162026-09-05 12:44:31-22.79706-42.4268216km/h23716m9.3m/s-57.0°C1.2%31.3hPa0V00:00:0000:00:0000:00:00
PU1XMG-162026-09-05 12:43:47-22.79829-42.42715342°18km/h23427m4.4m/s-57.0°C1.3%32.8hPa0V00:00:0000:00:0000:00:00
PU1XMG-162026-09-05 12:43:40-22.79842-42.42711326°4km/h23389m7.6m/s-56.9°C1.2%33.0hPa0V00:00:0000:00:0000:00:00
PU1XMG-162026-09-05 12:43:36-22.79851-42.42697307°20km/h23355m7.6m/s-56.9°C1.2%33.2hPa0V00:00:0000:00:0000:00:00
PU1XMG-162026-09-05 12:43:28-22.79883-42.42679349°18km/h23308m5.3m/s-56.9°C1.2%33.4hPa0V00:00:0000:00:0000:00:00
PU1XMG-162026-09-05 12:43:22-22.79911-42.42663329°24km/h23262m5.2m/s-56.9°C1.1%33.7hPa0V00:00:0000:00:0000:00:00
PU1XMG-162026-09-05 12:43:17-22.79939-42.4265427km/h23229m5.1m/s-56.6°C1.2%33.8hPa0V00:00:0000:00:0000:00:00
PU1XMG-162026-09-05 12:43:11-22.79971-42.42654341°16km/h23192m5.5m/s-56.8°C1.2%34.1hPa0V00:00:0000:00:0000:00:00
PU1XMG-162026-09-05 12:43:05-22.79991-42.42640350°20km/h23155m5.6m/s-56.9°C1.1%34.3hPa0V00:00:0000:00:0000:00:00
PU1XMG-162026-09-05 12:42:58-22.80026-42.4263925°13km/h23110m4.0m/s-57.4°C1.2%34.5hPa0V00:00:0000:00:0000:00:00
PU1XMG-162026-09-05 12:42:51-22.80044-42.4264915°13km/h23064m5.0m/s-57.9°C1.2%34.8hPa0V00:00:0000:00:0000:00:00
PU1XMG-162026-09-05 12:42:45-22.80056-42.4265728°11km/h23032m6.6m/s-58.1°C1.2%35.0hPa0V00:00:0000:00:0000:00:00
PU1XMG-162026-09-05 12:42:39-22.80069-42.4266518°9km/h22993m4.5m/s-58.3°C1.3%35.2hPa0V00:00:0000:00:0000:00:00
PU1XMG-162026-09-05 12:42:32-22.80079-42.42664329°4km/h22941m5.9m/s-58.3°C1.3%35.5hPa0V00:00:0000:00:0000:00:00
PU1XMG-162026-09-05 12:42:26-22.80084-42.426590km/h22901m9.6m/s-58.5°C1.3%35.7hPa0V00:00:0000:00:0000:00:00
PU1XMG-162026-09-05 12:42:20-22.80079-42.42653259°15km/h22861m3.4m/s-58.7°C1.3%35.9hPa0V00:00:0000:00:0000:00:00
PU1XMG-162026-09-05 12:42:13-22.80080-42.42625276°9km/h22813m4.7m/s-58.5°C1.3%36.2hPa0V00:00:0000:00:0000:00:00
PU1XMG-162026-09-05 12:42:08-22.80076-42.42611255°11km/h22782m4.5m/s-58.2°C1.3%36.4hPa0V00:00:0000:00:0000:00:00
PU1XMG-162026-09-05 12:42:02-22.80073-42.42592290°7km/h22752m5.7m/s-57.9°C1.3%36.6hPa0V00:00:0000:00:0000:00:00
PU1XMG-162026-09-05 12:41:57-22.80078-42.42589329°4km/h22713m6.4m/s-57.9°C1.3%36.8hPa0V00:00:0000:00:0000:00:00
PU1XMG-162026-09-05 12:41:52-22.80079-42.42579260°11km/h22680m6.9m/s-58.0°C1.2%37.0hPa0V00:00:0000:00:0000:00:00
PU1XMG-162026-09-05 12:41:45-22.80082-42.4257358°11km/h22637m5.6m/s-58.1°C1.3%37.2hPa0V00:00:0000:00:0000:00:00
PU1XMG-162026-09-05 12:41:40-22.80084-42.42584182°4km/h22590m7.4m/s-58.1°C1.3%37.4hPa0V00:00:0000:00:0000:00:00
PU1XMG-162026-09-05 12:41:32-22.80079-42.4258348°4km/h22556m6.3m/s-57.8°C1.3%37.7hPa0V00:00:0000:00:0000:00:00
PU1XMG-162026-09-05 12:41:27-22.80081-42.4259674°9km/h22527m6.8m/s-57.8°C1.3%37.9hPa0V00:00:0000:00:0000:00:00
PU1XMG-162026-09-05 12:41:21-22.80077-42.42607145°5km/h22489m5.3m/s-57.7°C1.3%38.1hPa0V00:00:0000:00:0000:00:00
PU1XMG-162026-09-05 12:41:16-22.80069-42.4261792°9km/h22458m5.4m/s-57.7°C1.3%38.3hPa0V00:00:0000:00:0000:00:00
PU1XMG-162026-09-05 12:41:10-22.80065-42.42637109°15km/h22423m4.2m/s-57.9°C1.3%38.6hPa0V00:00:0000:00:0000:00:00
PU1XMG-162026-09-05 12:40:59-22.80044-42.42665158°9km/h22356m7.4m/s-58.4°C1.3%38.9hPa0V00:00:0000:00:0000:00:00
PU1XMG-162026-09-05 12:40:53-22.80033-42.42671158°11km/h22324m8.8m/s-58.8°C1.3%39.2hPa0V00:00:0000:00:0000:00:00
PU1XMG-162026-09-05 12:40:44-22.79996-42.42672166°18km/h22261m8.0m/s-59.2°C1.4%39.5hPa0V00:00:0000:00:0000:00:00
PU1XMG-162026-09-05 12:40:38-22.79980-42.42684122°15km/h22229m7.4m/s-59.1°C1.3%39.7hPa0V00:00:0000:00:0000:00:00
PU1XMG-162026-09-05 12:40:33-22.79969-42.42702142°13km/h22191m6.6m/s-59.0°C1.4%40.0hPa0V00:00:0000:00:0000:00:00
PU1XMG-162026-09-05 12:40:28-22.79954-42.42707155°16km/h22158m6.2m/s-59.2°C1.3%40.2hPa0V00:00:0000:00:0000:00:00
PU1XMG-162026-09-05 12:40:22-22.79933-42.42723128°16km/h22122m5.6m/s-59.6°C1.3%40.4hPa0V00:00:0000:00:0000:00:00
PU1XMG-162026-09-05 12:40:16-22.79924-42.42736149°9km/h22092m6.9m/s-59.9°C1.4%40.7hPa0V00:00:0000:00:0000:00:00
PU1XMG-162026-09-05 12:40:11-22.79906-42.42739170°15km/h22052m6.2m/s-60.0°C1.5%40.9hPa0V00:00:0000:00:0000:00:00
PU1XMG-162026-09-05 12:40:06-22.79885-42.42751149°18km/h22023m7.8m/s-59.9°C1.4%41.1hPa0V00:00:0000:00:0000:00:00
PU1XMG-162026-09-05 12:40:00-22.79863-42.42762174°13km/h21987m3.5m/s-59.6°C1.4%41.3hPa0V00:00:0000:00:0000:00:00
PU1XMG-162026-09-05 12:39:54-22.79832-42.42767175°24km/h21949m7.9m/s-59.4°C1.4%41.6hPa0V00:00:0000:00:0000:00:00
PU1XMG-162026-09-05 12:39:49-22.79807-42.42767175°20km/h21916m9.1m/s-59.3°C1.4%41.8hPa0V00:00:0000:00:0000:00:00
PU1XMG-162026-09-05 12:39:42-22.79783-42.42767196°15km/h21875m6.9m/s-59.4°C1.4%42.1hPa0V00:00:0000:00:0000:00:00
PU1XMG-162026-09-05 12:39:38-22.79762-42.42759200°18km/h21846m6.3m/s-59.4°C1.4%42.3hPa0V00:00:0000:00:0000:00:00
PU1XMG-162026-09-05 12:39:32-22.79740-42.42743230°18km/h21807m5.8m/s-59.4°C1.4%42.5hPa0V00:00:0000:00:0000:00:00
PU1XMG-162026-09-05 12:39:26-22.79720-42.42729198°16km/h21768m8.0m/s-59.6°C1.4%42.8hPa0V00:00:0000:00:0000:00:00
PU1XMG-162026-09-05 12:39:21-22.79705-42.42720233°9km/h21735m8.4m/s-59.6°C1.4%43.0hPa0V00:00:0000:00:0000:00:00
PU1XMG-162026-09-05 12:39:15-22.79709-42.4271335°4km/h21695m4.1m/s-59.3°C1.4%43.3hPa0V00:00:0000:00:0000:00:00
PU1XMG-162026-09-05 12:39:10-22.79705-42.42708231°9km/h21659m6.8m/s-59.2°C1.4%43.5hPa0V00:00:0000:00:0000:00:00
PU1XMG-162026-09-05 12:39:04-22.79708-42.42702342°7km/h21628m6.7m/s-59.6°C1.3%43.8hPa0V00:00:0000:00:0000:00:00
PU1XMG-162026-09-05 12:38:58-22.79709-42.42702172°7km/h21598m5.7m/s-59.7°C1.5%44.0hPa0V00:00:0000:00:0000:00:00
PU1XMG-162026-09-05 12:38:53-22.79699-42.42701213°7km/h21560m6.4m/s-60.0°C1.4%44.3hPa0V00:00:0000:00:0000:00:00
PU1XMG-162026-09-05 12:38:44-22.79680-42.42710162°13km/h21504m8.1m/s-60.8°C1.6%44.7hPa0V00:00:0000:00:0000:00:00
PU1XMG-162026-09-05 12:38:37-22.79660-42.42707213°18km/h21465m4.7m/s-60.8°C1.5%45.0hPa0V00:00:0000:00:0000:00:00
PU1XMG-162026-09-05 12:38:30-22.79638-42.42697174°13km/h21413m8.1m/s-60.6°C1.5%45.3hPa0V00:00:0000:00:0000:00:00
PU1XMG-162026-09-05 12:34:35-22.78570-42.42483291°5km/h19909m5.6m/s-60.9°C1.7%57.5hPa0V00:00:0000:00:0000:00:00
PU1XMG-162026-09-05 12:34:28-22.78570-42.42483291°5km/h19909m5.6m/s-60.9°C1.7%57.9hPa0V00:00:0000:00:0000:00:00
PU1XMG-162026-09-05 12:34:12-22.78590-42.4248352°20km/h19814m5.4m/s-61.7°C1.7%58.8hPa0V00:00:0000:00:0000:00:00
PU1XMG-162026-09-05 12:34:07-22.78600-42.4251066°15km/h19777m6.0m/s-61.7°C1.8%59.1hPa0V00:00:0000:00:0000:00:00
PU1XMG-162026-09-05 12:34:01-22.78609-42.4253274°15km/h19740m7.9m/s-62.0°C1.8%59.5hPa0V00:00:0000:00:0000:00:00
PU1XMG-162026-09-05 12:33:53-22.78605-42.42564101°15km/h19695m5.6m/s-62.2°C1.9%59.9hPa0V00:00:0000:00:0000:00:00
PU1XMG-162026-09-05 12:33:46-22.78595-42.42586111°11km/h19644m7.4m/s-62.1°C1.9%60.4hPa0V00:00:0000:00:0000:00:00
PU1XMG-162026-09-05 12:33:41-22.78593-42.4260686°20km/h19610m6.7m/s-62.0°C2.0%60.7hPa0V00:00:0000:00:0000:00:00
PU1XMG-162026-09-05 12:33:35-22.78595-42.4263487°11km/h19573m8.3m/s-61.9°C1.9%61.1hPa0V00:00:0000:00:0000:00:00
PU1XMG-162026-09-05 12:33:28-22.78603-42.4266572°27km/h19527m8.3m/s-61.8°C1.9%61.6hPa0V00:00:0000:00:0000:00:00
PU1XMG-162026-09-05 12:33:22-22.78613-42.4270371°29km/h19495m5.7m/s-61.8°C1.9%61.9hPa0V00:00:0000:00:0000:00:00
PU1XMG-162026-09-05 12:33:17-22.78625-42.4274579°27km/h19456m6.8m/s-62.2°C2.0%62.3hPa0V00:00:0000:00:0000:00:00
PU1XMG-162026-09-05 12:33:12-22.78634-42.4278884°37km/h19425m5.2m/s-62.0°C2.0%62.6hPa0V00:00:0000:00:0000:00:00
PU1XMG-162026-09-05 12:33:05-22.78639-42.4284985°37km/h19388m7.5m/s-61.9°C2.0%63.0hPa0V00:00:0000:00:0000:00:00
PU1XMG-162026-09-05 12:33:00-22.78647-42.4290979°40km/h19352m4.3m/s-62.3°C2.0%63.3hPa0V00:00:0000:00:0000:00:00
PU1XMG-162026-09-05 12:32:52-22.78650-42.42990101°38km/h19307m5.0m/s-62.9°C2.1%63.8hPa0V00:00:0000:00:0000:00:00
PU1XMG-162026-09-05 12:32:47-22.78648-42.4304994°51km/h19278m5.0m/s-63.0°C2.1%64.1hPa0V00:00:0000:00:0000:00:00
PU1XMG-162026-09-05 12:32:41-22.78644-42.43119101°47km/h19251m6.5m/s-63.2°C2.1%64.4hPa0V00:00:0000:00:0000:00:00
PU1XMG-162026-09-05 12:32:36-22.78627-42.43194108°51km/h19218m3.9m/s-63.5°C2.1%64.8hPa0V00:00:0000:00:0000:00:00
PU1XMG-162026-09-05 12:32:31-22.78614-42.43264101°53km/h19190m4.0m/s-63.6°C2.2%65.1hPa0V00:00:0000:00:0000:00:00
PU1XMG-162026-09-05 12:32:25-22.78593-42.43340119°44km/h19157m5.7m/s-64.1°C2.3%65.4hPa0V00:00:0000:00:0000:00:00
PU1XMG-162026-09-05 12:32:19-22.78559-42.43398120°55km/h19129m6.8m/s-64.3°C2.3%65.7hPa0V00:00:0000:00:0000:00:00
PU1XMG-162026-09-05 12:32:13-22.78523-42.43482119°55km/h19098m5.9m/s-64.3°C2.3%66.0hPa0V00:00:0000:00:0000:00:00
PU1XMG-162026-09-05 12:32:08-22.78479-42.43558125°58km/h19066m4.5m/s-64.4°C2.4%66.4hPa0V00:00:0000:00:0000:00:00
PU1XMG-162026-09-05 12:31:56-22.78394-42.43688135°49km/h19009m4.9m/s-63.9°C2.4%67.0hPa0V00:00:0000:00:0000:00:00
PU1XMG-162026-09-05 12:31:51-22.78345-42.43755126°57km/h18978m5.0m/s-63.7°C2.4%67.3hPa0V00:00:0000:00:0000:00:00
PU1XMG-162026-09-05 12:31:46-22.78308-42.43809132°42km/h18951m6.9m/s-63.5°C2.4%67.6hPa0V00:00:0000:00:0000:00:00
PU1XMG-162026-09-05 12:31:39-22.78261-42.43866129°49km/h18919m5.6m/s-63.3°C2.4%68.0hPa0V00:00:0000:00:0000:00:00
PU1XMG-162026-09-05 12:31:34-22.78213-42.43930130°47km/h18888m5.1m/s-63.1°C2.4%68.4hPa0V00:00:0000:00:0000:00:00
PU1XMG-162026-09-05 12:31:28-22.78167-42.43986131°42km/h18856m3.8m/s-62.9°C2.4%68.7hPa0V00:00:0000:00:0000:00:00
PU1XMG-162026-09-05 12:31:10-22.78057-42.44136127°40km/h18761m6.8m/s-62.5°C2.5%69.8hPa0V00:00:0000:00:0000:00:00
PU1XMG-162026-09-05 12:31:05-22.78026-42.44183131°29km/h18724m5.4m/s-62.1°C2.4%70.2hPa0V00:00:0000:00:0000:00:00
PU1XMG-162026-09-05 12:29:36-22.78067-42.4486899°42km/h18196m7.0m/s-64.4°C4.5%76.5hPa0V00:00:0000:00:0000:00:00
PU1XMG-162026-09-05 12:29:31-22.78053-42.4495195°53km/h18151m7.6m/s-64.7°C4.5%77.1hPa0V00:00:0000:00:0000:00:00
PU1XMG-162026-09-05 12:26:39-22.77403-42.4747695°40km/h17194m8.9m/s-72.7°C13.4%90.5hPa0V00:00:0000:00:0000:00:00
PU1XMG-162026-09-05 12:25:32-22.77295-42.4863593°73km/h16811m6.8m/s-74.1°C17.6%96.7hPa0V00:00:0000:00:0000:00:00
PU1XMG-162026-09-05 12:25:27-22.77296-42.4876589°82km/h16776m10.3m/s-74.1°C16.9%97.2hPa0V00:00:0000:00:0000:00:00
PU1XMG-162026-09-05 12:25:16-22.77296-42.4900389°78km/h16712m5.4m/s-74.2°C17.0%98.4hPa0V00:00:0000:00:0000:00:00
PU1XMG-162026-09-05 12:25:09-22.77295-42.4914896°73km/h16671m6.7m/s-74.5°C18.0%99.0hPa0V00:00:0000:00:0000:00:00
PU1XMG-162026-09-05 12:25:03-22.77295-42.4926988°80km/h16640m4.5m/s-75.4°C17.9%99.6hPa0V00:00:0000:00:0000:00:00
PU1XMG-162026-09-05 12:24:15-22.77210-42.5020192°69km/h16367m3.8m/s-75.0°C18.3%104.1hPa0V00:00:0000:00:0000:00:00
PU1XMG-162026-09-05 12:24:08-22.77208-42.5028087°71km/h16345m5.5m/s-74.6°C18.5%104.7hPa0V00:00:0000:00:0000:00:00
PU1XMG-162026-09-05 12:24:04-22.77221-42.5036982°64km/h16315m4.8m/s-74.4°C17.7%105.3hPa0V00:00:0000:00:0000:00:00
PU1XMG-162026-09-05 12:23:58-22.77232-42.5047986°69km/h16282m5.5m/s-74.1°C17.0%105.9hPa0V00:00:0000:00:0000:00:00
PU1XMG-162026-09-05 12:23:13-22.77360-42.5140878°86km/h16041m5.7m/s-73.8°C17.8%110.4hPa0V00:00:0000:00:0000:00:00
PU1XMG-162026-09-05 12:23:06-22.77383-42.5157185°89km/h16007m5.9m/s-73.9°C17.0%111.0hPa0V00:00:0000:00:0000:00:00
PU1XMG-162026-09-05 12:23:00-22.77402-42.5171481°89km/h15977m4.7m/s-73.7°C16.8%111.6hPa0V00:00:0000:00:0000:00:00
PU1XMG-162026-09-05 12:22:54-22.77428-42.5185879°89km/h15944m4.9m/s-73.5°C17.5%112.2hPa0V00:00:0000:00:0000:00:00
PU1XMG-162026-09-05 12:22:47-22.77457-42.5203283°93km/h15910m5.5m/s-73.7°C16.3%112.9hPa0V00:00:0000:00:0000:00:00
PU1XMG-162026-09-05 12:22:38-22.77489-42.5226381°97km/h15861m5.8m/s-73.7°C17.2%113.8hPa0V00:00:0000:00:0000:00:00
PU1XMG-162026-09-05 12:22:32-22.77515-42.5242482°102km/h15828m6.2m/s-73.8°C16.5%114.5hPa0V00:00:0000:00:0000:00:00
PU1XMG-162026-09-05 12:21:26-22.77558-42.5424392°102km/h15484m5.0m/s-71.8°C14.5%121.4hPa0V00:00:0000:00:0000:00:00
PU1XMG-162026-09-05 12:20:54-22.77532-42.5514693°97km/h15304m4.5m/s-70.4°C12.9%125.2hPa0V00:00:0000:00:0000:00:00
PU1XMG-162026-09-05 12:20:48-22.77531-42.5530790°100km/h15269m5.3m/s-70.1°C11.9%125.9hPa0V00:00:0000:00:0000:00:00
PU1XMG-162026-09-05 12:20:42-22.77532-42.5544692°102km/h15243m3.9m/s-69.9°C11.5%126.4hPa0V00:00:0000:00:0000:00:00
PU1XMG-162026-09-05 12:20:37-22.77532-42.5560889°97km/h15212m6.1m/s-69.5°C11.8%127.1hPa0V00:00:0000:00:0000:00:00
PU1XMG-162026-09-05 12:20:31-22.77534-42.5576893°99km/h15180m5.9m/s-69.2°C11.2%127.8hPa0V00:00:0000:00:0000:00:00
PU1XMG-162026-09-05 12:20:25-22.77527-42.5590293°99km/h15154m4.7m/s-69.2°C11.0%128.4hPa0V00:00:0000:00:0000:00:00
PU1XMG-162026-09-05 12:20:20-22.77529-42.5603489°95km/h15126m4.7m/s-68.9°C10.5%128.9hPa0V00:00:0000:00:0000:00:00
PU1XMG-162026-09-05 12:20:16-22.77532-42.5616592°97km/h15099m5.3m/s-68.7°C10.4%129.5hPa0V00:00:0000:00:0000:00:00
PU1XMG-162026-09-05 12:20:07-22.77525-42.5639393°91km/h15051m6.3m/s-68.3°C10.1%130.5hPa0V00:00:0000:00:0000:00:00
PU1XMG-162026-09-05 12:20:01-22.77523-42.5654790°95km/h15019m5.4m/s-68.1°C9.8%131.2hPa0V00:00:0000:00:0000:00:00
PU1XMG-162026-09-05 12:19:54-22.77511-42.5672593°88km/h14982m4.0m/s-67.8°C9.3%132.1hPa0V00:00:0000:00:0000:00:00
PU1XMG-162026-09-05 12:19:47-22.77518-42.5686986°89km/h14950m5.3m/s-67.7°C9.4%132.8hPa0V00:00:0000:00:0000:00:00
PU1XMG-162026-09-05 12:19:43-22.77520-42.5699393°91km/h14921m6.3m/s-67.4°C9.3%133.4hPa0V00:00:0000:00:0000:00:00
PU1XMG-162026-09-05 12:19:30-22.77523-42.5730091°84km/h14852m4.9m/s-66.9°C9.0%135.0hPa0V00:00:0000:00:0000:00:00
PU1XMG-162026-09-05 12:19:23-22.77524-42.5744389°89km/h14821m6.7m/s-66.8°C9.0%135.6hPa0V00:00:0000:00:0000:00:00
PU1XMG-162026-09-05 12:19:18-22.77532-42.5758587°84km/h14788m6.0m/s-66.6°C9.0%136.4hPa0V00:00:0000:00:0000:00:00
PU1XMG-162026-09-05 12:19:10-22.77546-42.5776784°88km/h14745m6.0m/s-66.3°C8.6%137.4hPa0V00:00:0000:00:0000:00:00
PU1XMG-162026-09-05 12:19:05-22.77560-42.5789083°89km/h14718m6.3m/s-66.1°C8.8%138.0hPa0V00:00:0000:00:0000:00:00
PU1XMG-162026-09-05 12:18:58-22.77579-42.5806185°91km/h14679m4.3m/s-65.9°C8.9%138.9hPa0V00:00:0000:00:0000:00:00
PU1XMG-162026-09-05 12:18:52-22.77598-42.5820882°89km/h14647m5.8m/s-65.5°C9.1%139.6hPa0V00:00:0000:00:0000:00:00
PU1XMG-162026-09-05 12:18:47-22.77616-42.5832982°88km/h14621m5.3m/s-65.3°C8.7%140.2hPa0V00:00:0000:00:0000:00:00
PU1XMG-162026-09-05 12:18:40-22.77642-42.5847179°89km/h14589m4.3m/s-65.0°C9.0%141.0hPa0V00:00:0000:00:0000:00:00
PU1XMG-162026-09-05 12:18:34-22.77668-42.5861781°91km/h14559m6.2m/s-64.8°C8.9%141.6hPa0V00:00:0000:00:0000:00:00
PU1XMG-162026-09-05 12:18:28-22.77696-42.5878780°91km/h14520m4.6m/s-64.6°C8.8%142.5hPa0V00:00:0000:00:0000:00:00
PU1XMG-162026-09-05 12:18:21-22.77720-42.5893083°89km/h14488m7.4m/s-64.3°C9.0%143.2hPa0V00:00:0000:00:0000:00:00
PU1XMG-162026-09-05 12:18:16-22.77736-42.5905882°95km/h14458m6.9m/s-64.2°C8.9%144.0hPa0V00:00:0000:00:0000:00:00
PU1XMG-162026-09-05 12:18:11-22.77771-42.5920075°91km/h14425m6.4m/s-64.1°C8.6%144.7hPa0V00:00:0000:00:0000:00:00
PU1XMG-162026-09-05 12:18:03-22.77816-42.5940680°97km/h14375m5.0m/s-63.6°C8.4%145.9hPa0V00:00:0000:00:0000:00:00
PU1XMG-162026-09-05 12:17:57-22.77852-42.5956974°104km/h14340m6.8m/s-63.3°C8.6%146.7hPa0V00:00:0000:00:0000:00:00
PU1XMG-162026-09-05 12:17:51-22.77891-42.5970372°100km/h14312m4.6m/s-63.1°C8.5%147.4hPa0V00:00:0000:00:0000:00:00
PU1XMG-162026-09-05 12:17:45-22.77934-42.5985875°97km/h14282m5.3m/s-63.0°C8.2%148.2hPa0V00:00:0000:00:0000:00:00
PU1XMG-162026-09-05 12:17:40-22.77979-42.6002174°104km/h14252m5.0m/s-62.7°C8.1%149.0hPa0V00:00:0000:00:0000:00:00
PU1XMG-162026-09-05 12:17:33-22.78025-42.6018475°104km/h14220m5.4m/s-62.5°C8.1%149.7hPa0V00:00:0000:00:0000:00:00
PU1XMG-162026-09-05 12:17:26-22.78082-42.6040473°102km/h14177m4.3m/s-62.2°C8.1%150.7hPa0V00:00:0000:00:0000:00:00
PU1XMG-162026-09-05 12:17:19-22.78127-42.6056076°102km/h14145m4.3m/s-62.0°C8.2%151.5hPa0V00:00:0000:00:0000:00:00
PU1XMG-162026-09-05 12:17:15-22.78160-42.6069777°102km/h14118m6.4m/s-61.8°C8.3%152.2hPa0V00:00:0000:00:0000:00:00
PU1XMG-162026-09-05 12:17:09-22.78205-42.6085973°106km/h14087m4.8m/s-61.6°C8.3%153.0hPa0V00:00:0000:00:0000:00:00
PU1XMG-162026-09-05 12:17:03-22.78249-42.6102275°104km/h14054m4.6m/s-61.5°C8.2%153.7hPa0V00:00:0000:00:0000:00:00
PU1XMG-162026-09-05 12:16:57-22.78288-42.6115973°104km/h14028m6.3m/s-61.6°C8.4%154.4hPa0V00:00:0000:00:0000:00:00
PU1XMG-162026-09-05 12:16:53-22.78325-42.6129477°108km/h14003m5.7m/s-61.4°C8.1%155.0hPa0V00:00:0000:00:0000:00:00
PU1XMG-162026-09-05 12:16:46-22.78368-42.6146776°108km/h13967m7.0m/s-61.2°C8.5%155.9hPa0V00:00:0000:00:0000:00:00
PU1XMG-162026-09-05 12:16:41-22.78402-42.6161277°110km/h13940m4.5m/s-61.0°C8.2%156.6hPa0V00:00:0000:00:0000:00:00
PU1XMG-162026-09-05 12:16:35-22.78443-42.6178876°111km/h13909m3.8m/s-60.9°C8.0%157.4hPa0V00:00:0000:00:0000:00:00
PU1XMG-162026-09-05 12:16:31-22.78478-42.6193779°113km/h13884m5.1m/s-60.8°C8.1%158.0hPa0V00:00:0000:00:0000:00:00
PU1XMG-162026-09-05 12:16:25-22.78511-42.6212079°115km/h13854m4.0m/s-60.5°C7.9%158.8hPa0V00:00:0000:00:0000:00:00
PU1XMG-162026-09-05 12:16:18-22.78547-42.6230480°117km/h13822m5.6m/s-60.3°C7.9%159.6hPa0V00:00:0000:00:0000:00:00
PU1XMG-162026-09-05 12:16:13-22.78574-42.6246281°117km/h13796m5.4m/s-60.1°C7.9%160.3hPa0V00:00:0000:00:0000:00:00
PU1XMG-162026-09-05 12:16:08-22.78608-42.6265480°119km/h13762m4.6m/s-59.9°C7.7%161.1hPa0V00:00:0000:00:0000:00:00
PU1XMG-162026-09-05 12:16:01-22.78642-42.6284782°122km/h13730m3.7m/s-59.6°C7.5%162.0hPa0V00:00:0000:00:0000:00:00
PU1XMG-162026-09-05 12:15:55-22.78669-42.6304983°122km/h13698m4.7m/s-59.3°C7.0%162.8hPa0V00:00:0000:00:0000:00:00
PU1XMG-162026-09-05 12:15:50-22.78699-42.6324780°122km/h13667m5.8m/s-59.0°C7.1%163.6hPa0V00:00:0000:00:0000:00:00
PU1XMG-162026-09-05 12:15:43-22.78730-42.6344983°122km/h13636m4.9m/s-58.8°C7.0%164.5hPa0V00:00:0000:00:0000:00:00
PU1XMG-162026-09-05 12:15:40-22.78753-42.6361281°117km/h13610m6.3m/s-58.5°C6.8%165.1hPa0V00:00:0000:00:0000:00:00
PU1XMG-162026-09-05 12:15:33-22.78782-42.6381082°128km/h13579m3.4m/s-58.3°C6.6%165.9hPa0V00:00:0000:00:0000:00:00
PU1XMG-162026-09-05 12:15:26-22.78810-42.6401282°120km/h13547m4.6m/s-58.0°C6.6%166.7hPa0V00:00:0000:00:0000:00:00
PU1XMG-162026-09-05 12:15:21-22.78839-42.6421282°126km/h13517m5.6m/s-57.7°C6.7%167.6hPa0V00:00:0000:00:0000:00:00
PU1XMG-162026-09-05 12:15:14-22.78859-42.6441988°124km/h13488m5.7m/s-57.6°C6.4%168.3hPa0V00:00:0000:00:0000:00:00
PU1XMG-162026-09-05 12:15:09-22.78880-42.6461982°124km/h13458m5.5m/s-57.3°C6.3%169.2hPa0V00:00:0000:00:0000:00:00
PU1XMG-162026-09-05 12:14:57-22.78923-42.6500183°124km/h13403m4.3m/s-56.9°C6.4%170.6hPa0V00:00:0000:00:0000:00:00
PU1XMG-162026-09-05 12:14:53-22.78938-42.6517387°128km/h13381m4.3m/s-56.7°C6.3%171.2hPa0V00:00:0000:00:0000:00:00
PU1XMG-162026-09-05 12:14:47-22.78958-42.6537983°128km/h13351m5.1m/s-56.5°C6.5%172.0hPa0V00:00:0000:00:0000:00:00
PU1XMG-162026-09-05 12:14:40-22.78979-42.6559086°128km/h13320m3.0m/s-56.2°C6.5%172.8hPa0V00:00:0000:00:0000:00:00
PU1XMG-162026-09-05 12:14:34-22.78995-42.6579486°126km/h13292m3.6m/s-56.2°C6.5%173.6hPa0V00:00:0000:00:0000:00:00
PU1XMG-162026-09-05 12:14:29-22.79008-42.6596886°130km/h13268m5.4m/s-56.0°C6.6%174.3hPa0V00:00:0000:00:0000:00:00
PU1XMG-162026-09-05 12:14:24-22.79026-42.6617885°124km/h13241m4.1m/s-55.8°C6.6%175.1hPa0V00:00:0000:00:0000:00:00
PU1XMG-162026-09-05 12:14:18-22.79040-42.6638887°131km/h13213m3.9m/s-55.6°C6.6%175.9hPa0V00:00:0000:00:0000:00:00
PU1XMG-162026-09-05 12:14:13-22.79052-42.6656586°128km/h13188m4.3m/s-55.5°C6.4%176.5hPa0V00:00:0000:00:0000:00:00
PU1XMG-162026-09-05 12:14:07-22.79068-42.6677788°133km/h13160m4.3m/s-55.3°C6.3%177.3hPa0V00:00:0000:00:0000:00:00
PU1XMG-162026-09-05 12:14:00-22.79077-42.6699489°128km/h13130m6.0m/s-55.1°C6.2%178.1hPa0V00:00:0000:00:0000:00:00
PU1XMG-162026-09-05 12:13:55-22.79086-42.6720187°128km/h13102m5.3m/s-54.9°C6.1%178.9hPa0V00:00:0000:00:0000:00:00
PU1XMG-162026-09-05 12:13:50-22.79097-42.6737989°131km/h13077m6.2m/s-54.8°C6.2%179.6hPa0V00:00:0000:00:0000:00:00
PU1XMG-162026-09-05 12:13:44-22.79103-42.6759290°128km/h13050m3.9m/s-54.6°C6.6%180.4hPa0V00:00:0000:00:0000:00:00
PU1XMG-162026-09-05 12:13:39-22.79106-42.6776489°126km/h13026m5.0m/s-55.0°C7.1%181.1hPa0V00:00:0000:00:0000:00:00
PU1XMG-162026-09-05 12:13:33-22.79115-42.6797489°130km/h12998m5.4m/s-54.9°C6.9%181.8hPa0V00:00:0000:00:0000:00:00
PU1XMG-162026-09-05 12:13:28-22.79120-42.6815388°130km/h12974m4.7m/s-54.6°C7.5%182.6hPa0V00:00:0000:00:0000:00:00
PU1XMG-162026-09-05 12:13:21-22.79129-42.6836389°128km/h12944m3.9m/s-54.5°C8.0%183.4hPa0V00:00:0000:00:0000:00:00
PU1XMG-162026-09-05 12:13:16-22.79134-42.6854089°130km/h12920m5.8m/s-54.6°C8.1%184.1hPa0V00:00:0000:00:0000:00:00
PU1XMG-162026-09-05 12:13:12-22.79138-42.6872190°135km/h12897m3.6m/s-54.5°C8.1%184.7hPa0V00:00:0000:00:0000:00:00
PU1XMG-162026-09-05 12:13:06-22.79138-42.6894692°137km/h12870m3.8m/s-54.3°C8.5%185.5hPa0V00:00:0000:00:0000:00:00
PU1XMG-162026-09-05 12:13:00-22.79138-42.6916890°135km/h12840m4.5m/s-54.2°C8.8%186.4hPa0V00:00:0000:00:0000:00:00
PU1XMG-162026-09-05 12:12:53-22.79139-42.6938891°135km/h12812m3.8m/s-54.4°C8.4%187.1hPa0V00:00:0000:00:0000:00:00
PU1XMG-162026-09-05 12:12:47-22.79140-42.6960989°133km/h12782m4.0m/s-54.1°C8.8%188.0hPa0V00:00:0000:00:0000:00:00
PU1XMG-162026-09-05 12:12:42-22.79149-42.6983088°135km/h12753m5.9m/s-53.9°C8.8%188.8hPa0V00:00:0000:00:0000:00:00
PU1XMG-162026-09-05 12:12:36-22.79159-42.7004788°128km/h12725m4.7m/s-53.7°C9.1%189.7hPa0V00:00:0000:00:0000:00:00
PU1XMG-162026-09-05 12:12:30-22.79169-42.7026989°141km/h12695m3.4m/s-53.6°C9.9%190.6hPa0V00:00:0000:00:0000:00:00
PU1XMG-162026-09-05 12:12:24-22.79175-42.7045689°131km/h12670m4.7m/s-53.6°C9.9%191.3hPa0V00:00:0000:00:0000:00:00
PU1XMG-162026-09-05 12:12:18-22.79187-42.7067388°135km/h12642m5.5m/s-53.7°C9.9%192.1hPa0V00:00:0000:00:0000:00:00
PU1XMG-162026-09-05 12:12:13-22.79196-42.7086088°139km/h12618m5.9m/s-53.3°C9.8%192.9hPa0V00:00:0000:00:0000:00:00
PU1XMG-162026-09-05 12:12:08-22.79208-42.7108687°137km/h12588m5.8m/s-53.2°C9.5%193.8hPa0V00:00:0000:00:0000:00:00
PU1XMG-162026-09-05 12:12:01-22.79221-42.7130988°137km/h12559m5.5m/s-53.1°C9.7%194.7hPa0V00:00:0000:00:0000:00:00
PU1XMG-162026-09-05 12:11:56-22.79235-42.7153087°131km/h12531m4.8m/s-52.9°C9.6%195.5hPa0V00:00:0000:00:0000:00:00
PU1XMG-162026-09-05 12:11:51-22.79249-42.7171386°139km/h12507m4.9m/s-52.8°C9.3%196.2hPa0V00:00:0000:00:0000:00:00
PU1XMG-162026-09-05 12:11:45-22.79266-42.7194287°137km/h12478m3.8m/s-52.4°C9.4%197.2hPa0V00:00:0000:00:0000:00:00
PU1XMG-162026-09-05 12:11:39-22.79277-42.7212986°137km/h12454m5.8m/s-52.3°C9.4%197.8hPa0V00:00:0000:00:0000:00:00
PU1XMG-162026-09-05 12:11:34-22.79297-42.7235786°142km/h12425m4.8m/s-52.1°C9.5%198.8hPa0V00:00:0000:00:0000:00:00
PU1XMG-162026-09-05 12:11:28-22.79315-42.7258986°142km/h12397m5.5m/s-51.9°C9.2%199.6hPa0V00:00:0000:00:0000:00:00
PU1XMG-162026-09-05 12:11:22-22.79335-42.7282385°142km/h12368m6.3m/s-51.8°C9.4%200.4hPa0V00:00:0000:00:0000:00:00
PU1XMG-162026-09-05 12:11:16-22.79352-42.7301887°142km/h12343m5.6m/s-51.6°C9.8%201.2hPa0V00:00:0000:00:0000:00:00
PU1XMG-162026-09-05 12:11:10-22.79364-42.7325289°142km/h12313m6.2m/s-51.3°C9.2%202.2hPa0V00:00:0000:00:0000:00:00
PU1XMG-162026-09-05 12:11:05-22.79375-42.7348788°142km/h12283m4.5m/s-51.0°C9.2%203.1hPa0V00:00:0000:00:0000:00:00
PU1XMG-162026-09-05 12:10:58-22.79384-42.7372390°146km/h12253m4.5m/s-50.7°C9.1%204.0hPa0V00:00:0000:00:0000:00:00
PU1XMG-162026-09-05 12:10:52-22.79388-42.7396189°142km/h12223m5.4m/s-50.4°C9.2%205.0hPa0V00:00:0000:00:0000:00:00
PU1XMG-162026-09-05 12:10:47-22.79397-42.7419590°144km/h12194m6.2m/s-50.2°C9.0%205.9hPa0V00:00:0000:00:0000:00:00
PU1XMG-162026-09-05 12:10:41-22.79400-42.7439490°146km/h12169m4.2m/s-50.1°C9.1%206.7hPa0V00:00:0000:00:0000:00:00
PU1XMG-162026-09-05 12:10:35-22.79408-42.7462789°141km/h12138m5.8m/s-49.7°C9.4%207.6hPa0V00:00:0000:00:0000:00:00
PU1XMG-162026-09-05 12:10:30-22.79412-42.7486591°146km/h12108m7.4m/s-49.5°C10.2%208.6hPa0V00:00:0000:00:0000:00:00
PU1XMG-162026-09-05 12:10:24-22.79411-42.7506592°148km/h12081m4.2m/s-49.3°C11.4%209.5hPa0V00:00:0000:00:0000:00:00
PU1XMG-162026-09-05 12:10:18-22.79409-42.7530292°144km/h12046m6.3m/s-49.3°C13.4%210.6hPa0V00:00:0000:00:0000:00:00
PU1XMG-162026-09-05 12:10:12-22.79406-42.7554993°153km/h12016m4.8m/s-49.1°C17.9%211.5hPa0V00:00:0000:00:0000:00:00
PU1XMG-162026-09-05 12:10:05-22.79388-42.7583394°146km/h11977m5.0m/s-49.2°C26.5%212.9hPa0V00:00:0000:00:0000:00:00
PU1XMG-162026-09-05 12:10:00-22.79374-42.7603296°146km/h11948m5.6m/s-49.0°C25.4%213.8hPa0V00:00:0000:00:0000:00:00
PU1XMG-162026-09-05 12:09:55-22.79347-42.7626798°144km/h11918m5.6m/s-48.8°C22.7%214.8hPa0V00:00:0000:00:0000:00:00
PU1XMG-162026-09-05 12:09:50-22.79321-42.7650398°141km/h11889m6.0m/s-48.5°C22.2%215.5hPa0V00:00:0000:00:0000:00:00
PU1XMG-162026-09-05 12:09:44-22.79300-42.7669098°137km/h11865m5.2m/s-48.3°C20.5%216.5hPa0V00:00:0000:00:0000:00:00
PU1XMG-162026-09-05 12:09:39-22.79279-42.7687998°142km/h11839m4.7m/s-48.0°C19.0%217.4hPa0V00:00:0000:00:0000:00:00
PU1XMG-162026-09-05 12:09:32-22.79251-42.7711398°141km/h11807m3.8m/s-47.8°C14.8%218.4hPa0V00:00:0000:00:0000:00:00
PU1XMG-162026-09-05 12:09:26-22.79225-42.7734299°141km/h11777m4.9m/s-47.7°C11.1%219.4hPa0V00:00:0000:00:0000:00:00
PU1XMG-162026-09-05 12:09:21-22.79197-42.7757597°146km/h11749m5.5m/s-47.4°C8.8%220.4hPa0V00:00:0000:00:0000:00:00
PU1XMG-162026-09-05 12:09:15-22.79176-42.7780896°139km/h11719m3.6m/s-47.2°C8.0%221.4hPa0V00:00:0000:00:0000:00:00
PU1XMG-162026-09-05 12:09:08-22.79159-42.7803496°141km/h11687m4.9m/s-47.0°C7.8%222.4hPa0V00:00:0000:00:0000:00:00
PU1XMG-162026-09-05 12:09:04-22.79145-42.7822896°141km/h11661m6.2m/s-46.8°C7.3%223.2hPa0V00:00:0000:00:0000:00:00
PU1XMG-162026-09-05 12:08:58-22.79130-42.7841995°139km/h11635m3.9m/s-46.7°C7.1%224.1hPa0V00:00:0000:00:0000:00:00
PU1XMG-162026-09-05 12:08:52-22.79121-42.7864793°139km/h11604m4.2m/s-46.5°C7.0%225.1hPa0V00:00:0000:00:0000:00:00
PU1XMG-162026-09-05 12:08:47-22.79114-42.7887793°141km/h11574m4.6m/s-46.1°C6.8%226.2hPa0V00:00:0000:00:0000:00:00
PU1XMG-162026-09-05 12:08:42-22.79110-42.7906992°141km/h11548m5.7m/s-45.9°C7.2%227.1hPa0V00:00:0000:00:0000:00:00
PU1XMG-162026-09-05 12:08:37-22.79109-42.7925992°141km/h11522m3.4m/s-45.6°C7.0%227.9hPa0V00:00:0000:00:0000:00:00
PU1XMG-162026-09-05 12:08:31-22.79101-42.7945294°139km/h11496m6.1m/s-45.5°C7.0%228.8hPa0V00:00:0000:00:0000:00:00
PU1XMG-162026-09-05 12:08:25-22.79103-42.7967890°137km/h11467m6.6m/s-45.2°C6.9%229.8hPa0V00:00:0000:00:0000:00:00
PU1XMG-162026-09-05 12:08:20-22.79101-42.7987392°142km/h11443m4.8m/s-44.9°C6.9%230.6hPa0V00:00:0000:00:0000:00:00
PU1XMG-162026-09-05 12:08:14-22.79099-42.8010091°139km/h11414m6.2m/s-44.7°C7.0%231.6hPa0V00:00:0000:00:0000:00:00
PU1XMG-162026-09-05 12:08:09-22.79104-42.8033089°142km/h11384m6.7m/s-44.5°C6.9%232.7hPa0V00:00:0000:00:0000:00:00
PU1XMG-162026-09-05 12:08:04-22.79106-42.8051991°133km/h11358m4.9m/s-44.3°C6.7%233.6hPa0V00:00:0000:00:0000:00:00
PU1XMG-162026-09-05 12:07:58-22.79106-42.8074392°142km/h11329m6.3m/s-44.0°C6.6%234.7hPa0V00:00:0000:00:0000:00:00
PU1XMG-162026-09-05 12:07:51-22.79110-42.8097389°137km/h11296m5.6m/s-43.8°C6.5%235.7hPa0V00:00:0000:00:0000:00:00
PU1XMG-162026-09-05 12:07:45-22.79118-42.8119989°139km/h11265m4.7m/s-43.5°C6.0%236.9hPa0V00:00:0000:00:0000:00:00
PU1XMG-162026-09-05 12:07:39-22.79123-42.8142589°137km/h11235m5.7m/s-43.2°C6.2%237.9hPa0V00:00:0000:00:0000:00:00
PU1XMG-162026-09-05 12:07:36-22.79127-42.8161490°137km/h11211m4.8m/s-43.0°C6.0%238.8hPa0V00:00:0000:00:0000:00:00
PU1XMG-162026-09-05 12:07:28-22.79132-42.8184089°139km/h11181m5.9m/s-42.8°C5.8%239.9hPa0V00:00:0000:00:0000:00:00
PU1XMG-162026-09-05 12:07:23-22.79136-42.8206991°141km/h11151m6.0m/s-42.6°C5.7%241.0hPa0V00:00:0000:00:0000:00:00
PU1XMG-162026-09-05 12:07:18-22.79133-42.8226192°139km/h11124m6.1m/s-42.5°C5.7%241.9hPa0V00:00:0000:00:0000:00:00
PU1XMG-162026-09-05 12:07:12-22.79133-42.8244990°141km/h11101m3.7m/s-42.2°C5.8%242.7hPa0V00:00:0000:00:0000:00:00
PU1XMG-162026-09-05 12:07:06-22.79135-42.8268291°144km/h11072m4.6m/s-42.0°C5.9%243.8hPa0V00:00:0000:00:0000:00:00
PU1XMG-162026-09-05 12:07:01-22.79130-42.8291393°139km/h11042m3.3m/s-41.8°C5.9%244.8hPa0V00:00:0000:00:0000:00:00
PU1XMG-162026-09-05 12:06:55-22.79132-42.8341590°142km/h10978m5.5m/s-41.6°C5.6%245.9hPa0V00:00:0000:00:0000:00:00
PU1XMG-162026-09-05 12:06:47-22.79133-42.8345490°142km/h10973m4.3m/s-41.1°C5.6%247.4hPa0V00:00:0000:00:0000:00:00
PU1XMG-162026-09-05 12:06:41-22.79136-42.8364789°141km/h10949m5.6m/s-40.9°C5.4%248.2hPa0V00:00:0000:00:0000:00:00
PU1XMG-162026-09-05 12:06:36-22.79142-42.8383990°141km/h10924m4.8m/s-40.8°C5.2%249.2hPa0V00:00:0000:00:0000:00:00
PU1XMG-162026-09-05 12:06:30-22.79142-42.8407292°141km/h10894m6.3m/s-40.6°C5.1%250.3hPa0V00:00:0000:00:0000:00:00
PU1XMG-162026-09-05 12:06:25-22.79140-42.8426591°141km/h10870m5.0m/s-40.4°C4.7%251.1hPa0V00:00:0000:00:0000:00:00
PU1XMG-162026-09-05 12:06:20-22.79141-42.8445989°144km/h10845m5.9m/s-40.1°C4.5%252.0hPa0V00:00:0000:00:0000:00:00
PU1XMG-162026-09-05 12:06:15-22.79149-42.8469489°141km/h10815m4.7m/s-39.8°C4.5%253.1hPa0V00:00:0000:00:0000:00:00
PU1XMG-162026-09-05 12:06:09-22.79153-42.8488790°139km/h10791m4.6m/s-39.6°C4.4%254.0hPa0V00:00:0000:00:0000:00:00
PU1XMG-162026-09-05 12:06:04-22.79156-42.8512190°144km/h10762m3.1m/s-39.4°C4.5%255.1hPa0V00:00:0000:00:0000:00:00
PU1XMG-162026-09-05 12:05:57-22.79164-42.8535688°144km/h10733m5.6m/s-39.3°C4.6%256.2hPa0V00:00:0000:00:0000:00:00
PU1XMG-162026-09-05 12:05:50-22.79179-42.8567088°144km/h10694m4.2m/s-39.0°C4.4%257.7hPa0V00:00:0000:00:0000:00:00
PU1XMG-162026-09-05 12:05:24-22.79210-42.8693589°144km/h10539m6.1m/s-38.0°C3.8%262.2hPa0V00:00:0000:00:0000:00:00
PU1XMG-162026-09-05 12:05:18-22.79210-42.8693589°144km/h10539m6.1m/s-37.8°C3.8%263.5hPa0V00:00:0000:00:0000:00:00
PU1XMG-162026-09-05 12:05:09-22.79211-42.8729291°148km/h10496m4.7m/s-37.5°C3.9%265.3hPa0V00:00:0000:00:0000:00:00
PU1XMG-162026-09-05 12:05:02-22.79206-42.8752992°144km/h10466m3.8m/s-37.2°C4.2%266.3hPa0V00:00:0000:00:0000:00:00
PU1XMG-162026-09-05 12:04:58-22.79206-42.8772991°148km/h10442m5.9m/s-37.1°C4.8%267.3hPa0V00:00:0000:00:0000:00:00
PU1XMG-162026-09-05 12:04:51-22.79202-42.8796792°142km/h10414m4.5m/s-37.0°C4.5%268.3hPa0V00:00:0000:00:0000:00:00
PU1XMG-162026-09-05 12:04:46-22.79201-42.8820492°146km/h10385m5.0m/s-36.7°C4.2%269.5hPa0V00:00:0000:00:0000:00:00
PU1XMG-162026-09-05 12:04:40-22.79196-42.8844793°146km/h10355m3.9m/s-36.4°C4.0%270.7hPa0V00:00:0000:00:0000:00:00
PU1XMG-162026-09-05 12:04:35-22.79191-42.8864592°144km/h10331m5.1m/s-36.2°C4.0%271.6hPa0V00:00:0000:00:0000:00:00
PU1XMG-162026-09-05 12:04:28-22.79184-42.8888293°148km/h10303m5.1m/s-36.0°C3.9%272.7hPa0V00:00:0000:00:0000:00:00
PU1XMG-162026-09-05 12:04:22-22.79177-42.8911993°141km/h10275m5.0m/s-35.6°C3.7%273.9hPa0V00:00:0000:00:0000:00:00
PU1XMG-162026-09-05 12:04:17-22.79173-42.8931492°146km/h10251m6.0m/s-35.4°C3.6%274.8hPa0V00:00:0000:00:0000:00:00
PU1XMG-162026-09-05 12:04:12-22.79169-42.8955293°141km/h10221m4.7m/s-35.1°C3.5%275.9hPa0V00:00:0000:00:0000:00:00
PU1XMG-162026-09-05 12:04:07-22.79162-42.8974692°144km/h10196m4.8m/s-34.9°C3.5%276.9hPa0V00:00:0000:00:0000:00:00
PU1XMG-162026-09-05 12:04:01-22.79159-42.8998192°141km/h10168m3.1m/s-34.7°C3.4%278.1hPa0V00:00:0000:00:0000:00:00
PU1XMG-162026-09-05 12:03:54-22.79155-42.9021493°141km/h10139m6.1m/s-34.4°C3.4%279.2hPa0V00:00:0000:00:0000:00:00
PU1XMG-162026-09-05 12:03:49-22.79153-42.9040992°146km/h10114m4.7m/s-34.2°C3.3%280.2hPa0V00:00:0000:00:0000:00:00
PU1XMG-162026-09-05 12:03:44-22.79150-42.9065091°144km/h10086m5.9m/s-33.9°C3.3%281.1hPa0V00:00:0000:00:0000:00:00
PU1XMG-162026-09-05 12:03:39-22.79151-42.9084390°139km/h10061m5.5m/s-33.7°C3.2%282.3hPa0V00:00:0000:00:0000:00:00
PU1XMG-162026-09-05 12:03:32-22.79149-42.9107392°142km/h10032m5.6m/s-33.4°C3.2%283.5hPa0V00:00:0000:00:0000:00:00
PU1XMG-162026-09-05 12:03:27-22.79147-42.9130890°142km/h10003m3.9m/s-33.4°C3.3%284.6hPa0V00:00:0000:00:0000:00:00
PU1XMG-162026-09-05 12:03:22-22.79149-42.9150391°144km/h9979m3.5m/s-33.4°C3.2%285.6hPa0V00:00:0000:00:0000:00:00
PU1XMG-162026-09-05 12:03:15-22.79147-42.9174191°141km/h9951m5.0m/s-33.5°C3.0%286.8hPa0V00:00:0000:00:0000:00:00
PU1XMG-162026-09-05 12:03:11-22.79150-42.9193190°137km/h9925m3.7m/s-33.4°C3.1%287.8hPa0V00:00:0000:00:0000:00:00
PU1XMG-162026-09-05 12:02:59-22.79132-42.9238893°141km/h9867m4.4m/s-33.1°C3.3%290.0hPa0V00:00:0000:00:0000:00:00
PU1XMG-162026-09-05 12:02:54-22.79128-42.9253992°137km/h9847m4.2m/s-33.1°C3.4%290.9hPa0V00:00:0000:00:0000:00:00
PU1XMG-162026-09-05 12:02:48-22.79123-42.9276892°141km/h9818m4.0m/s-33.1°C3.8%292.2hPa0V00:00:0000:00:0000:00:00
PU1XMG-162026-09-05 12:02:43-22.79115-42.9299493°137km/h9791m3.5m/s-32.9°C3.9%293.4hPa0V00:00:0000:00:0000:00:00
PU1XMG-162026-09-05 12:02:38-22.79107-42.9318094°135km/h9767m4.3m/s-32.8°C4.2%294.4hPa0V00:00:0000:00:0000:00:00
PU1XMG-162026-09-05 12:02:32-22.79094-42.9339794°133km/h9737m4.5m/s-32.7°C4.7%295.6hPa0V00:00:0000:00:0000:00:00
PU1XMG-162026-09-05 12:02:27-22.79086-42.9357893°133km/h9715m5.9m/s-32.5°C4.6%296.6hPa0V00:00:0000:00:0000:00:00
PU1XMG-162026-09-05 12:02:21-22.79077-42.9379894°133km/h9687m6.0m/s-32.3°C4.4%297.8hPa0V00:00:0000:00:0000:00:00
PU1XMG-162026-09-05 12:02:15-22.79064-42.9401294°130km/h9660m6.6m/s-32.1°C4.1%299.0hPa0V00:00:0000:00:0000:00:00
PU1XMG-162026-09-05 12:02:09-22.79049-42.9422896°133km/h9630m5.0m/s-32.1°C4.7%300.0hPa0V00:00:0000:00:0000:00:00
PU1XMG-162026-09-05 12:02:04-22.79037-42.9440895°130km/h9605m3.2m/s-31.9°C5.8%301.2hPa0V00:00:0000:00:0000:00:00
PU1XMG-162026-09-05 12:01:59-22.79025-42.9458595°130km/h9581m4.4m/s-31.8°C7.1%302.2hPa0V00:00:0000:00:0000:00:00
PU1XMG-162026-09-05 12:01:52-22.79011-42.9479794°128km/h9550m6.8m/s-31.7°C8.9%303.5hPa0V00:00:0000:00:0000:00:00
PU1XMG-162026-09-05 12:01:46-22.78998-42.9500695°126km/h9522m4.9m/s-31.6°C10.4%304.8hPa0V00:00:0000:00:0000:00:00
PU1XMG-162026-09-05 12:01:41-22.78992-42.9518092°124km/h9494m6.7m/s-31.3°C11.0%306.0hPa0V00:00:0000:00:0000:00:00
PU1XMG-162026-09-05 12:01:35-22.78983-42.9538293°124km/h9463m5.8m/s-31.1°C11.5%307.4hPa0V00:00:0000:00:0000:00:00
PU1XMG-162026-09-05 12:01:30-22.78986-42.9559289°137km/h9426m5.5m/s-30.8°C13.2%308.9hPa0V00:00:0000:00:0000:00:00
PU1XMG-162026-09-05 12:01:23-22.78986-42.9581292°131km/h9393m5.8m/s-30.8°C15.8%310.4hPa0V00:00:0000:00:0000:00:00
PU1XMG-162026-09-05 12:01:18-22.78986-42.9601988°124km/h9361m7.4m/s-30.6°C16.4%311.8hPa0V00:00:0000:00:0000:00:00
PU1XMG-162026-09-05 12:01:11-22.78999-42.9622887°128km/h9328m5.8m/s-30.5°C16.9%313.2hPa0V00:00:0000:00:0000:00:00
PU1XMG-162026-09-05 12:01:05-22.79014-42.9643786°126km/h9300m6.1m/s-30.2°C16.9%314.4hPa0V00:00:0000:00:0000:00:00
PU1XMG-162026-09-05 12:01:00-22.79024-42.9660989°126km/h9275m6.6m/s-30.0°C16.7%315.5hPa0V00:00:0000:00:0000:00:00
PU1XMG-162026-09-05 12:00:55-22.79030-42.9681887°124km/h9247m4.7m/s-29.8°C16.5%316.7hPa0V00:00:0000:00:0000:00:00
PU1XMG-162026-09-05 12:00:50-22.79040-42.9698688°124km/h9223m5.4m/s-29.6°C16.3%317.9hPa0V00:00:0000:00:0000:00:00
PU1XMG-162026-09-05 12:00:44-22.79047-42.9719088°124km/h9192m5.2m/s-29.3°C16.1%319.2hPa0V00:00:0000:00:0000:00:00
PU1XMG-162026-09-05 12:00:39-22.79054-42.9736389°128km/h9164m4.4m/s-29.1°C16.3%320.4hPa0V00:00:0000:00:0000:00:00
PU1XMG-162026-09-05 12:00:33-22.79056-42.9757289°128km/h9131m6.0m/s-28.8°C16.5%321.9hPa0V00:00:0000:00:0000:00:00
PU1XMG-162026-09-05 12:00:27-22.79064-42.9774388°122km/h9107m3.1m/s-28.6°C16.8%323.1hPa0V00:00:0000:00:0000:00:00
PU1XMG-162026-09-05 12:00:21-22.79066-42.9794392°120km/h9077m3.3m/s-28.3°C16.7%324.4hPa0V00:00:0000:00:0000:00:00
PU1XMG-162026-09-05 12:00:19-22.79063-42.9810492°115km/h9052m3.8m/s-28.1°C16.9%325.5hPa0V00:00:0000:00:0000:00:00
PU1XMG-162026-09-05 12:00:10-22.79060-42.9829892°119km/h9024m6.6m/s-28.0°C19.0%326.8hPa0V00:00:0000:00:0000:00:00
PU1XMG-162026-09-05 12:00:06-22.79058-42.9846392°120km/h8999m5.5m/s-28.0°C23.5%328.0hPa0V00:00:0000:00:0000:00:00
PU1XMG-162026-09-05 11:59:59-22.79054-42.9865892°119km/h8971m3.8m/s-27.7°C24.0%329.2hPa0V00:00:0000:00:0000:00:00
PU1XMG-162026-09-05 11:59:55-22.79053-42.9882391°120km/h8948m5.2m/s-27.5°C23.6%330.2hPa0V00:00:0000:00:0000:00:00
PU1XMG-162026-09-05 11:59:48-22.79059-42.9901889°117km/h8919m3.9m/s-27.2°C23.5%331.7hPa0V00:00:0000:00:0000:00:00
PU1XMG-162026-09-05 11:59:43-22.79067-42.9920889°117km/h8888m4.1m/s-27.2°C25.7%333.1hPa0V00:00:0000:00:0000:00:00
PU1XMG-162026-09-05 11:59:37-22.79067-42.9940592°120km/h8858m5.9m/s-27.0°C25.5%334.4hPa0V00:00:0000:00:0000:00:00
PU1XMG-162026-09-05 11:59:30-22.79071-42.9959289°115km/h8830m4.6m/s-26.7°C25.5%335.7hPa0V00:00:0000:00:0000:00:00
PU1XMG-162026-09-05 11:59:24-22.79074-42.9978890°122km/h8799m5.8m/s-26.4°C24.9%337.3hPa0V00:00:0000:00:0000:00:00
PU1XMG-162026-09-05 11:59:19-22.79084-42.9998087°115km/h8765m6.4m/s-26.1°C24.6%338.8hPa0V00:00:0000:00:0000:00:00
PU1XMG-162026-09-05 11:59:12-22.79089-43.0017391°119km/h8734m3.9m/s-25.7°C23.8%340.3hPa0V00:00:0000:00:0000:00:00
PU1XMG-162026-09-05 11:59:06-22.79095-43.0036688°119km/h8703m6.4m/s-25.4°C23.5%341.8hPa0V00:00:0000:00:0000:00:00
PU1XMG-162026-09-05 11:59:00-22.79105-43.0055887°117km/h8669m4.8m/s-25.2°C23.2%343.2hPa0V00:00:0000:00:0000:00:00
PU1XMG-162026-09-05 11:58:55-22.79117-43.0071885°117km/h8643m5.2m/s-24.9°C23.1%344.6hPa0V00:00:0000:00:0000:00:00
PU1XMG-162026-09-05 11:58:49-22.79132-43.0091189°119km/h8610m4.2m/s-24.7°C24.1%346.1hPa0V00:00:0000:00:0000:00:00
PU1XMG-162026-09-05 11:58:44-22.79138-43.0110787°120km/h8579m5.8m/s-24.4°C27.4%347.5hPa0V00:00:0000:00:0000:00:00
PU1XMG-162026-09-05 11:58:38-22.79156-43.0130484°117km/h8549m4.6m/s-24.1°C27.9%349.1hPa0V00:00:0000:00:0000:00:00
PU1XMG-162026-09-05 11:58:32-22.79174-43.0146285°117km/h8523m7.3m/s-23.9°C28.1%350.3hPa0V00:00:0000:00:0000:00:00
PU1XMG-162026-09-05 11:58:26-22.79193-43.0165084°115km/h8489m5.1m/s-23.7°C34.3%351.9hPa0V00:00:0000:00:0000:00:00
PU1XMG-162026-09-05 11:58:20-22.79221-43.0183982°119km/h8455m6.2m/s-23.9°C51.0%353.4hPa0V00:00:0000:00:0000:00:00
PU1XMG-162026-09-05 11:58:14-22.79238-43.0202587°108km/h8422m4.9m/s-23.8°C50.9%355.0hPa0V00:00:0000:00:0000:00:00
PU1XMG-162026-09-05 11:58:09-22.79253-43.0220186°104km/h8383m7.0m/s-23.5°C41.2%356.8hPa0V00:00:0000:00:0000:00:00
PU1XMG-162026-09-05 11:58:04-22.79262-43.0234588°104km/h8359m5.2m/s-23.2°C39.9%358.2hPa0V00:00:0000:00:0000:00:00
PU1XMG-162026-09-05 11:57:58-22.79266-43.0249290°110km/h8331m4.4m/s-22.9°C37.6%359.5hPa0V00:00:0000:00:0000:00:00
PU1XMG-162026-09-05 11:57:53-22.79268-43.0264588°111km/h8305m6.1m/s-22.8°C33.5%360.8hPa0V00:00:0000:00:0000:00:00
PU1XMG-162026-09-05 11:57:48-22.79279-43.0282589°108km/h8273m7.1m/s-22.5°C34.2%362.3hPa0V00:00:0000:00:0000:00:00
PU1XMG-162026-09-05 11:57:42-22.79282-43.0296991°102km/h8246m3.1m/s-22.2°C33.7%363.7hPa0V00:00:0000:00:0000:00:00
PU1XMG-162026-09-05 11:57:37-22.79284-43.0311389°108km/h8221m4.7m/s-22.0°C33.7%365.0hPa0V00:00:0000:00:0000:00:00
PU1XMG-162026-09-05 11:57:33-22.79285-43.0326091°108km/h8195m4.2m/s-21.8°C38.0%366.3hPa0V00:00:0000:00:0000:00:00
PU1XMG-162026-09-05 11:57:27-22.79284-43.0340791°104km/h8169m4.4m/s-21.7°C40.7%367.5hPa0V00:00:0000:00:0000:00:00
PU1XMG-162026-09-05 11:57:21-22.79286-43.0358290°111km/h8139m5.3m/s-21.5°C39.0%369.0hPa0V00:00:0000:00:0000:00:00
PU1XMG-162026-09-05 11:57:16-22.79292-43.0373487°108km/h8115m5.3m/s-21.3°C42.2%370.4hPa0V00:00:0000:00:0000:00:00
PU1XMG-162026-09-05 11:57:11-22.79302-43.0387787°104km/h8088m6.0m/s-21.1°C43.7%371.7hPa0V00:00:0000:00:0000:00:00
PU1XMG-162026-09-05 11:57:06-22.79310-43.0401887°99km/h8061m7.3m/s-20.9°C46.1%373.0hPa0V00:00:0000:00:0000:00:00
PU1XMG-162026-09-05 11:57:01-22.79314-43.0417990°100km/h8029m5.0m/s-20.8°C47.7%374.6hPa0V00:00:0000:00:0000:00:00
PU1XMG-162026-09-05 11:56:56-22.79316-43.0432291°108km/h8001m3.1m/s-20.7°C52.0%375.9hPa0V00:00:0000:00:0000:00:00
PU1XMG-162026-09-05 11:56:50-22.79318-43.0447089°104km/h7977m5.4m/s-20.5°C51.6%377.2hPa0V00:00:0000:00:0000:00:00
PU1XMG-162026-09-05 11:56:44-22.79329-43.0463684°102km/h7941m7.1m/s-20.2°C50.3%379.0hPa0V00:00:0000:00:0000:00:00
PU1XMG-162026-09-05 11:56:40-22.79335-43.0480391°102km/h7906m6.8m/s-19.9°C47.3%380.8hPa0V00:00:0000:00:0000:00:00
PU1XMG-162026-09-05 11:56:33-22.79337-43.0494490°104km/h7876m5.9m/s-19.9°C40.3%382.3hPa0V00:00:0000:00:0000:00:00
PU1XMG-162026-09-05 11:56:27-22.79347-43.0511585°104km/h7841m7.2m/s-19.8°C33.2%384.0hPa0V00:00:0000:00:0000:00:00
PU1XMG-162026-09-05 11:56:22-22.79361-43.0525186°95km/h7811m5.0m/s-19.8°C28.4%385.5hPa0V00:00:0000:00:0000:00:00
PU1XMG-162026-09-05 11:56:17-22.79370-43.0537987°93km/h7782m5.8m/s-19.7°C35.5%387.1hPa0V00:00:0000:00:0000:00:00
PU1XMG-162026-09-05 11:56:11-22.79377-43.0553589°95km/h7751m2.2m/s-19.6°C35.6%388.8hPa0V00:00:0000:00:0000:00:00
PU1XMG-162026-09-05 11:56:06-22.79380-43.0566190°89km/h7726m6.0m/s-19.5°C35.4%390.1hPa0V00:00:0000:00:0000:00:00
PU1XMG-162026-09-05 11:56:00-22.79386-43.0580788°88km/h7693m5.3m/s-19.3°C42.1%391.8hPa0V00:00:0000:00:0000:00:00
PU1XMG-162026-09-05 11:55:55-22.79395-43.0595088°88km/h7661m5.4m/s-19.1°C43.4%393.6hPa0V00:00:0000:00:0000:00:00
PU1XMG-162026-09-05 11:55:48-22.79402-43.0609788°89km/h7630m5.4m/s-18.9°C46.8%395.3hPa0V00:00:0000:00:0000:00:00
PU1XMG-162026-09-05 11:55:43-22.79404-43.0621692°86km/h7600m7.0m/s-18.7°C47.3%396.8hPa0V00:00:0000:00:0000:00:00
PU1XMG-162026-09-05 11:55:38-22.79402-43.0636089°86km/h7563m6.0m/s-18.4°C48.4%398.7hPa0V00:00:0000:00:0000:00:00
PU1XMG-162026-09-05 11:55:32-22.79410-43.0649288°78km/h7530m7.9m/s-18.1°C48.3%400.4hPa0V00:00:0000:00:0000:00:00
PU1XMG-162026-09-05 11:55:26-22.79416-43.0660788°84km/h7502m5.0m/s-17.9°C49.5%402.1hPa0V00:00:0000:00:0000:00:00
PU1XMG-162026-09-05 11:55:20-22.79419-43.0674188°80km/h7471m6.2m/s-17.7°C50.3%403.7hPa0V00:00:0000:00:0000:00:00
PU1XMG-162026-09-05 11:55:16-22.79426-43.0685187°78km/h7442m7.5m/s-17.6°C52.7%405.2hPa0V00:00:0000:00:0000:00:00
PU1XMG-162026-09-05 11:55:10-22.79439-43.0697184°71km/h7408m6.0m/s-17.3°C52.6%407.0hPa0V00:00:0000:00:0000:00:00
PU1XMG-162026-09-05 11:55:04-22.79455-43.0708782°73km/h7378m6.0m/s-17.2°C53.2%408.6hPa0V00:00:0000:00:0000:00:00
PU1XMG-162026-09-05 11:54:58-22.79471-43.0718781°73km/h7351m5.2m/s-17.1°C55.1%410.2hPa0V00:00:0000:00:0000:00:00
PU1XMG-162026-09-05 11:54:52-22.79490-43.0730181°68km/h7320m5.8m/s-16.9°C55.3%411.8hPa0V00:00:0000:00:0000:00:00
PU1XMG-162026-09-05 11:54:46-22.79508-43.0741380°71km/h7291m5.5m/s-16.7°C53.3%413.4hPa0V00:00:0000:00:0000:00:00
PU1XMG-162026-09-05 11:54:40-22.79536-43.0752574°71km/h7257m5.5m/s-16.5°C52.4%415.4hPa0V00:00:0000:00:0000:00:00
PU1XMG-162026-09-05 11:54:35-22.79560-43.0761775°68km/h7232m4.5m/s-16.5°C54.0%416.8hPa0V00:00:0000:00:0000:00:00
PU1XMG-162026-09-05 11:54:29-22.79595-43.0772370°71km/h7201m4.6m/s-16.2°C50.8%418.4hPa0V00:00:0000:00:0000:00:00
PU1XMG-162026-09-05 11:54:23-22.79630-43.0783776°73km/h7171m2.5m/s-16.0°C46.6%420.1hPa0V00:00:0000:00:0000:00:00
PU1XMG-162026-09-05 11:54:18-22.79648-43.0793281°68km/h7147m5.9m/s-15.9°C39.3%421.5hPa0V00:00:0000:00:0000:00:00
PU1XMG-162026-09-05 11:54:12-22.79670-43.0803875°68km/h7119m6.8m/s-15.7°C35.1%423.1hPa0V00:00:0000:00:0000:00:00
PU1XMG-162026-09-05 11:54:06-22.79704-43.0814374°69km/h7087m3.3m/s-15.5°C31.6%424.8hPa0V00:00:0000:00:0000:00:00
PU1XMG-162026-09-05 11:54:01-22.79727-43.0823175°62km/h7062m4.2m/s-15.3°C25.2%426.3hPa0V00:00:0000:00:0000:00:00
PU1XMG-162026-09-05 11:53:55-22.79756-43.0833672°66km/h7028m5.1m/s-15.1°C23.6%428.2hPa0V00:00:0000:00:0000:00:00
PU1XMG-162026-09-05 11:53:49-22.79784-43.0843572°60km/h7001m4.4m/s-14.8°C21.3%429.8hPa0V00:00:0000:00:0000:00:00
PU1XMG-162026-09-05 11:53:43-22.79821-43.0852766°60km/h6975m5.2m/s-14.6°C19.9%431.3hPa0V00:00:0000:00:0000:00:00
PU1XMG-162026-09-05 11:53:37-22.79868-43.0862668°71km/h6943m6.0m/s-14.4°C18.2%432.9hPa0V00:00:0000:00:0000:00:00
PU1XMG-162026-09-05 11:53:31-22.79908-43.0872666°68km/h6907m6.9m/s-14.2°C16.2%435.1hPa0V00:00:0000:00:0000:00:00
PU1XMG-162026-09-05 11:53:25-22.79955-43.0882563°66km/h6875m4.7m/s-14.1°C15.9%437.0hPa0V00:00:0000:00:0000:00:00
PU1XMG-162026-09-05 11:53:19-22.80012-43.0891956°68km/h6842m4.2m/s-13.9°C14.4%438.8hPa0V00:00:0000:00:0000:00:00
PU1XMG-162026-09-05 11:53:07-22.80125-43.0908953°64km/h6788m3.5m/s-13.5°C13.3%442.0hPa0V00:00:0000:00:0000:00:00
PU1XMG-162026-09-05 11:53:02-22.80187-43.0917959°69km/h6758m5.2m/s-13.2°C13.1%443.6hPa0V00:00:0000:00:0000:00:00
PU1XMG-162026-09-05 11:52:56-22.80247-43.0927653°71km/h6734m4.6m/s-13.0°C13.1%445.2hPa0V00:00:0000:00:0000:00:00
PU1XMG-162026-09-05 11:52:49-22.80315-43.0936754°73km/h6705m5.6m/s-13.1°C14.2%446.6hPa0V00:00:0000:00:0000:00:00
PU1XMG-162026-09-05 11:52:44-22.80369-43.0944855°71km/h6686m4.2m/s-13.0°C18.2%447.9hPa0V00:00:0000:00:0000:00:00
PU1XMG-162026-09-05 11:52:39-22.80438-43.0953651°71km/h6658m5.6m/s-12.8°C20.0%449.5hPa0V00:00:0000:00:0000:00:00
PU1XMG-162026-09-05 11:52:33-22.80503-43.0964053°80km/h6628m6.4m/s-12.5°C22.3%451.3hPa0V00:00:0000:00:0000:00:00
PU1XMG-162026-09-05 11:52:27-22.80565-43.0971255°68km/h6600m7.7m/s-12.3°C24.0%452.8hPa0V00:00:0000:00:0000:00:00
PU1XMG-162026-09-05 11:52:22-22.80610-43.0980457°82km/h6571m1.5m/s-12.0°C24.7%454.7hPa0V00:00:0000:00:0000:00:00
PU1XMG-162026-09-05 11:52:16-22.80675-43.0989861°62km/h6539m7.3m/s-11.9°C33.7%456.5hPa0V00:00:0000:00:0000:00:00
PU1XMG-162026-09-05 11:52:11-22.80717-43.0998163°71km/h6512m4.0m/s-11.9°C41.4%458.1hPa0V00:00:0000:00:0000:00:00
PU1XMG-162026-09-05 11:52:05-22.80770-43.1008562°78km/h6484m4.3m/s-11.9°C36.3%459.7hPa0V00:00:0000:00:0000:00:00
PU1XMG-162026-09-05 11:51:53-22.80894-43.1033657°75km/h6429m3.7m/s-11.6°C19.4%462.9hPa0V00:00:0000:00:0000:00:00
PU1XMG-162026-09-05 11:51:47-22.80945-43.1041760°69km/h6408m2.3m/s-11.5°C19.4%464.3hPa0V00:00:0000:00:0000:00:00
PU1XMG-162026-09-05 11:51:42-22.80992-43.1051266°64km/h6380m4.0m/s-11.3°C19.3%466.0hPa0V00:00:0000:00:0000:00:00
PU1XMG-162026-09-05 11:51:35-22.81038-43.1060863°68km/h6354m5.9m/s-11.1°C19.5%467.6hPa0V00:00:0000:00:0000:00:00
PU1XMG-162026-09-05 11:51:30-22.81080-43.1068762°66km/h6331m5.0m/s-10.9°C19.6%469.0hPa0V00:00:0000:00:0000:00:00
PU1XMG-162026-09-05 11:51:24-22.81125-43.1078165°64km/h6305m2.7m/s-10.7°C22.4%470.6hPa0V00:00:0000:00:0000:00:00
PU1XMG-162026-09-05 11:51:18-22.81171-43.1087663°71km/h6280m5.1m/s-10.6°C25.6%472.1hPa0V00:00:0000:00:0000:00:00
PU1XMG-162026-09-05 11:51:13-22.81225-43.1097959°68km/h6252m3.7m/s-10.3°C24.6%473.8hPa0V00:00:0000:00:0000:00:00
PU1XMG-162026-09-05 11:51:07-22.81270-43.1105759°69km/h6228m4.6m/s-10.2°C23.7%475.3hPa0V00:00:0000:00:0000:00:00
PU1XMG-162026-09-05 11:51:01-22.81329-43.1116159°78km/h6198m4.6m/s-10.1°C27.2%477.0hPa0V00:00:0000:00:0000:00:00
PU1XMG-162026-09-05 11:50:55-22.81388-43.1126461°71km/h6176m4.4m/s-10.0°C34.1%478.4hPa0V00:00:0000:00:0000:00:00
PU1XMG-162026-09-05 11:50:50-22.81445-43.1136558°71km/h6151m3.9m/s-9.9°C42.1%480.0hPa0V00:00:0000:00:0000:00:00
PU1XMG-162026-09-05 11:50:44-22.81488-43.1144566°68km/h6131m3.8m/s-9.7°C41.3%481.4hPa0V00:00:0000:00:0000:00:00
PU1XMG-162026-09-05 11:50:39-22.81534-43.1155366°73km/h6106m6.0m/s-9.6°C47.1%482.9hPa0V00:00:0000:00:0000:00:00
PU1XMG-162026-09-05 11:50:32-22.81579-43.1166167°73km/h6080m5.7m/s-9.5°C50.4%484.6hPa0V00:00:0000:00:0000:00:00
PU1XMG-162026-09-05 11:50:26-22.81625-43.1177666°77km/h6050m5.3m/s-9.2°C34.4%486.5hPa0V00:00:0000:00:0000:00:00
PU1XMG-162026-09-05 11:50:21-22.81669-43.1187261°80km/h6027m3.3m/s-9.0°C27.5%487.9hPa0V00:00:0000:00:0000:00:00
PU1XMG-162026-09-05 11:50:16-22.81719-43.1196262°71km/h6001m4.1m/s-8.7°C24.9%489.5hPa0V00:00:0000:00:0000:00:00
PU1XMG-162026-09-05 11:50:10-22.81767-43.1206165°69km/h5973m5.6m/s-8.5°C22.8%491.2hPa0V00:00:0000:00:0000:00:00
PU1XMG-162026-09-05 11:50:05-22.81803-43.1214666°66km/h5950m5.8m/s-8.3°C20.8%492.7hPa0V00:00:0000:00:0000:00:00
PU1XMG-162026-09-05 11:49:59-22.81851-43.1224962°73km/h5922m3.0m/s-8.1°C18.4%494.4hPa0V00:00:0000:00:0000:00:00
PU1XMG-162026-09-05 11:49:54-22.81896-43.1233666°71km/h5899m3.8m/s-7.9°C17.0%496.0hPa0V00:00:0000:00:0000:00:00
PU1XMG-162026-09-05 11:49:48-22.81942-43.1244966°75km/h5869m4.5m/s-7.7°C15.3%497.8hPa0V00:00:0000:00:0000:00:00
PU1XMG-162026-09-05 11:49:43-22.81984-43.1253764°71km/h5845m4.5m/s-7.5°C14.9%499.4hPa0V00:00:0000:00:0000:00:00
PU1XMG-162026-09-05 11:49:37-22.82038-43.1264062°71km/h5818m3.0m/s-7.5°C19.3%501.2hPa0V00:00:0000:00:0000:00:00
PU1XMG-162026-09-05 11:49:31-22.82086-43.1273867°68km/h5794m3.7m/s-7.6°C34.0%502.8hPa0V00:00:0000:00:0000:00:00
PU1XMG-162026-09-05 11:49:25-22.82128-43.1284866°78km/h5765m5.8m/s-7.4°C37.0%504.6hPa0V00:00:0000:00:0000:00:00
PU1XMG-162026-09-05 11:49:19-22.82187-43.1296364°77km/h5731m5.6m/s-7.2°C22.3%506.8hPa0V00:00:0000:00:0000:00:00
PU1XMG-162026-09-05 11:49:13-22.82235-43.1308472°84km/h5698m4.5m/s-7.1°C23.7%508.9hPa0V00:00:0000:00:0000:00:00
PU1XMG-162026-09-05 11:49:07-22.82282-43.1321066°80km/h5672m4.1m/s-7.0°C26.6%510.7hPa0V00:00:0000:00:0000:00:00
PU1XMG-162026-09-05 11:49:02-22.82324-43.1331269°84km/h5646m5.5m/s-6.9°C27.2%512.2hPa0V00:00:0000:00:0000:00:00
PU1XMG-162026-09-05 11:48:56-22.82371-43.1343869°80km/h5617m3.4m/s-6.7°C28.3%514.1hPa0V00:00:0000:00:0000:00:00
PU1XMG-162026-09-05 11:48:51-22.82408-43.1354572°88km/h5594m3.9m/s-6.5°C28.2%515.7hPa0V00:00:0000:00:0000:00:00
PU1XMG-162026-09-05 11:48:45-22.82441-43.1368673°82km/h5567m5.2m/s-6.2°C28.3%517.4hPa0V00:00:0000:00:0000:00:00
PU1XMG-162026-09-05 11:48:39-22.82483-43.1381472°82km/h5519m5.4m/s-5.9°C26.8%520.6hPa0V00:00:0000:00:0000:00:00
PU1XMG-162026-09-05 11:48:27-22.82560-43.1405771°75km/h5464m5.3m/s-5.6°C14.2%524.3hPa0V00:00:0000:00:0000:00:00
PU1XMG-162026-09-05 11:48:21-22.82608-43.1418469°89km/h5432m3.2m/s-5.4°C15.4%526.4hPa0V00:00:0000:00:0000:00:00
PU1XMG-162026-09-05 11:48:16-22.82647-43.1429769°86km/h5407m5.0m/s-5.3°C21.7%528.1hPa0V00:00:0000:00:0000:00:00
PU1XMG-162026-09-05 11:48:10-22.82692-43.1442570°84km/h5377m4.5m/s-5.3°C34.7%530.2hPa0V00:00:0000:00:0000:00:00
PU1XMG-162026-09-05 11:48:04-22.82747-43.1455665°88km/h5347m6.1m/s-5.5°C35.3%532.1hPa0V00:00:0000:00:0000:00:00
PU1XMG-162026-09-05 11:47:59-22.82790-43.1466772°86km/h5323m4.9m/s-5.6°C41.5%533.9hPa0V00:00:0000:00:0000:00:00
PU1XMG-162026-09-05 11:47:54-22.82837-43.1479567°82km/h5293m4.2m/s-5.7°C56.1%535.9hPa0V00:00:0000:00:0000:00:00
PU1XMG-162026-09-05 11:47:48-22.82884-43.1490265°91km/h5266m6.1m/s-5.7°C68.6%537.5hPa0V00:00:0000:00:0000:00:00
PU1XMG-162026-09-05 11:47:43-22.82926-43.1501670°89km/h5238m5.9m/s-5.7°C76.3%539.5hPa0V00:00:0000:00:0000:00:00
PU1XMG-162026-09-05 11:47:38-22.82975-43.1515268°93km/h5207m5.2m/s-5.4°C63.8%541.8hPa0V00:00:0000:00:0000:00:00
PU1XMG-162026-09-05 11:47:31-22.83030-43.1529067°88km/h5176m6.7m/s-5.1°C45.0%543.8hPa0V00:00:0000:00:0000:00:00
PU1XMG-162026-09-05 11:47:25-22.83081-43.1541667°82km/h5146m3.9m/s-5.2°C68.5%545.9hPa0V00:00:0000:00:0000:00:00
PU1XMG-162026-09-05 11:47:11-22.83192-43.1574477°93km/h5070m5.2m/s-5.1°C83.9%551.0hPa0V00:00:0000:00:0000:00:00
PU1XMG-162026-09-05 11:47:05-22.83222-43.1586072°82km/h5046m3.7m/s-4.9°C82.9%552.7hPa0V00:00:0000:00:0000:00:00
PU1XMG-162026-09-05 11:46:59-22.83260-43.1598077°75km/h5016m5.3m/s-4.7°C80.8%554.8hPa0V00:00:0000:00:0000:00:00
PU1XMG-162026-09-05 11:46:53-22.83290-43.1611281°84km/h4981m8.2m/s-4.4°C78.4%557.3hPa0V00:00:0000:00:0000:00:00
PU1XMG-162026-09-05 11:46:47-22.83325-43.1624571°84km/h4949m6.1m/s-4.1°C74.7%559.7hPa0V00:00:0000:00:0000:00:00
PU1XMG-162026-09-05 11:46:42-22.83354-43.1634576°73km/h4923m6.6m/s-4.0°C72.7%561.4hPa0V00:00:0000:00:0000:00:00
PU1XMG-162026-09-05 11:46:36-22.83387-43.1646076°71km/h4889m5.6m/s-3.8°C72.8%563.9hPa0V00:00:0000:00:0000:00:00
PU1XMG-162026-09-05 11:46:31-22.83417-43.1655072°66km/h4865m6.0m/s-3.6°C70.7%565.8hPa0V00:00:0000:00:0000:00:00
PU1XMG-162026-09-05 11:46:25-22.83451-43.1665672°66km/h4832m4.8m/s-3.4°C72.6%568.2hPa0V00:00:0000:00:0000:00:00
PU1XMG-162026-09-05 11:46:19-22.83482-43.1677978°73km/h4799m6.2m/s-3.1°C69.7%570.2hPa0V00:00:0000:00:0000:00:00
PU1XMG-162026-09-05 11:46:14-22.83509-43.1687869°73km/h4773m4.8m/s-2.8°C65.8%572.6hPa0V00:00:0000:00:0000:00:00
PU1XMG-162026-09-05 11:46:08-22.83539-43.1697174°69km/h4744m4.1m/s-2.5°C63.0%574.7hPa0V00:00:0000:00:0000:00:00
PU1XMG-162026-09-05 11:46:03-22.83561-43.1705977°66km/h4720m4.9m/s-2.4°C61.2%576.6hPa0V00:00:0000:00:0000:00:00
PU1XMG-162026-09-05 11:45:58-22.83593-43.1716674°69km/h4689m3.6m/s-2.2°C63.5%578.5hPa0V00:00:0000:00:0000:00:00
PU1XMG-162026-09-05 11:45:51-22.83625-43.1726768°66km/h4662m6.0m/s-2.1°C65.4%580.3hPa0V00:00:0000:00:0000:00:00
PU1XMG-162026-09-05 11:45:46-22.83655-43.1736477°77km/h4636m6.7m/s-1.9°C64.1%582.2hPa0V00:00:0000:00:0000:00:00
PU1XMG-162026-09-05 11:45:40-22.83682-43.1748278°71km/h4603m5.5m/s-1.6°C62.1%584.6hPa0V00:00:0000:00:0000:00:00
PU1XMG-162026-09-05 11:45:35-22.83705-43.1757877°71km/h4575m4.3m/s-1.4°C61.1%586.6hPa0V00:00:0000:00:0000:00:00
PU1XMG-162026-09-05 11:45:29-22.83728-43.1769178°69km/h4544m4.4m/s-1.1°C60.0%588.9hPa0V00:00:0000:00:0000:00:00
PU1XMG-162026-09-05 11:45:23-22.83754-43.1780177°68km/h4517m5.6m/s-0.9°C59.6%590.9hPa0V00:00:0000:00:0000:00:00
PU1XMG-162026-09-05 11:45:18-22.83771-43.1789383°69km/h4492m5.8m/s-0.6°C59.1%592.9hPa0V00:00:0000:00:0000:00:00
PU1XMG-162026-09-05 11:45:12-22.83781-43.1800588°71km/h4463m4.4m/s-0.4°C59.2%595.3hPa0V00:00:0000:00:0000:00:00
PU1XMG-162026-09-05 11:45:06-22.83793-43.1811883°66km/h4435m4.8m/s-0.3°C61.5%597.2hPa0V00:00:0000:00:0000:00:00
PU1XMG-162026-09-05 11:45:01-22.83814-43.1820873°73km/h4411m7.3m/s-0.1°C60.8%599.0hPa0V00:00:0000:00:0000:00:00
PU1XMG-162026-09-05 11:44:56-22.83836-43.1830080°66km/h4383m6.7m/s0.1°C62.3%600.7hPa0V00:00:0000:00:0000:00:00
PU1XMG-162026-09-05 11:44:51-22.83851-43.1838682°62km/h4356m2.5m/s0.3°C63.5%603.0hPa0V00:00:0000:00:0000:00:00
PU1XMG-162026-09-05 11:44:45-22.83864-43.1849185°68km/h4328m5.4m/s0.4°C64.5%605.0hPa0V00:00:0000:00:0000:00:00
PU1XMG-162026-09-05 11:44:39-22.83879-43.1860080°62km/h4300m4.8m/s0.4°C73.3%607.1hPa0V00:00:0000:00:0000:00:00
PU1XMG-162026-09-05 11:44:34-22.83890-43.1868583°68km/h4276m3.7m/s0.5°C75.8%608.9hPa0V00:00:0000:00:0000:00:00
PU1XMG-162026-09-05 11:44:28-22.83908-43.1879780°69km/h4250m5.5m/s0.7°C73.7%611.1hPa0V00:00:0000:00:0000:00:00
PU1XMG-162026-09-05 11:44:23-22.83922-43.1889284°75km/h4225m5.2m/s0.9°C71.3%612.7hPa0V00:00:0000:00:0000:00:00
PU1XMG-162026-09-05 11:44:18-22.83934-43.1899182°69km/h4201m5.2m/s1.1°C70.0%614.6hPa0V00:00:0000:00:0000:00:00
PU1XMG-162026-09-05 11:44:13-22.83958-43.1908075°64km/h4171m5.5m/s1.4°C68.1%617.1hPa0V00:00:0000:00:0000:00:00
PU1XMG-162026-09-05 11:44:08-22.83982-43.1916577°66km/h4138m6.7m/s1.6°C67.3%619.4hPa0V00:00:0000:00:0000:00:00
PU1XMG-162026-09-05 11:44:02-22.84002-43.1927180°66km/h4106m5.5m/s1.9°C68.3%622.0hPa0V00:00:0000:00:0000:00:00
PU1XMG-162026-09-05 11:43:58-22.84024-43.1936270°68km/h4083m4.3m/s2.0°C71.3%623.8hPa0V00:00:0000:00:0000:00:00
PU1XMG-162026-09-05 11:43:51-22.84061-43.1946279°57km/h4055m6.4m/s2.1°C72.8%626.0hPa0V00:00:0000:00:0000:00:00
PU1XMG-162026-09-05 11:43:46-22.84073-43.1953473°55km/h4030m6.5m/s2.3°C72.6%627.9hPa0V00:00:0000:00:0000:00:00
PU1XMG-162026-09-05 11:43:41-22.84097-43.1960971°60km/h4000m6.3m/s2.5°C73.9%630.3hPa0V00:00:0000:00:0000:00:00
PU1XMG-162026-09-05 11:43:35-22.84133-43.1970265°62km/h3965m5.6m/s2.7°C73.4%632.8hPa0V00:00:0000:00:0000:00:00
PU1XMG-162026-09-05 11:43:29-22.84169-43.1980672°68km/h3936m3.0m/s3.0°C73.1%635.1hPa0V00:00:0000:00:0000:00:00
PU1XMG-162026-09-05 11:43:24-22.84199-43.1988972°62km/h3911m3.6m/s3.2°C72.5%637.0hPa0V00:00:0000:00:0000:00:00
PU1XMG-162026-09-05 11:43:19-22.84220-43.1997079°64km/h3887m3.1m/s3.4°C72.8%638.8hPa0V00:00:0000:00:0000:00:00
PU1XMG-162026-09-05 11:43:13-22.84236-43.2007078°58km/h3859m3.9m/s3.6°C75.0%641.2hPa0V00:00:0000:00:0000:00:00
PU1XMG-162026-09-05 11:43:09-22.84271-43.2016466°64km/h3829m6.4m/s3.7°C75.9%643.7hPa0V00:00:0000:00:0000:00:00
PU1XMG-162026-09-05 11:43:02-22.84294-43.2024379°58km/h3800m6.9m/s3.9°C75.6%645.8hPa0V00:00:0000:00:0000:00:00
PU1XMG-162026-09-05 11:42:56-22.84311-43.2034581°64km/h3767m5.1m/s4.2°C75.0%648.4hPa0V00:00:0000:00:0000:00:00
PU1XMG-162026-09-05 11:42:51-22.84334-43.2043274°71km/h3741m2.7m/s4.5°C73.9%650.2hPa0V00:00:0000:00:0000:00:00
PU1XMG-162026-09-05 11:42:45-22.84366-43.2053979°60km/h3715m6.8m/s4.7°C73.4%652.3hPa0V00:00:0000:00:0000:00:00
PU1XMG-162026-09-05 11:42:40-22.84380-43.2061877°62km/h3682m9.7m/s5.0°C72.0%655.1hPa0V00:00:0000:00:0000:00:00
PU1XMG-162026-09-05 11:42:34-22.84405-43.2071579°53km/h3648m5.9m/s5.3°C71.7%657.9hPa0V00:00:0000:00:0000:00:00
PU1XMG-162026-09-05 11:42:29-22.84423-43.2079176°64km/h3619m4.6m/s5.5°C70.6%660.3hPa0V00:00:0000:00:0000:00:00
PU1XMG-162026-09-05 11:42:23-22.84446-43.2089783°62km/h3592m5.2m/s5.7°C71.5%662.4hPa0V00:00:0000:00:0000:00:00
PU1XMG-162026-09-05 11:42:18-22.84462-43.2099174°64km/h3557m5.4m/s6.0°C71.0%665.2hPa0V00:00:0000:00:0000:00:00
PU1XMG-162026-09-05 11:42:12-22.84477-43.2107685°64km/h3533m7.8m/s6.1°C71.8%667.4hPa0V00:00:0000:00:0000:00:00
PU1XMG-162026-09-05 11:42:06-22.84474-43.2117693°58km/h3500m2.7m/s6.3°C74.7%669.9hPa0V00:00:0000:00:0000:00:00
PU1XMG-162026-09-05 11:42:01-22.84482-43.2126083°60km/h3473m6.8m/s6.4°C75.1%672.0hPa0V00:00:0000:00:0000:00:00
PU1XMG-162026-09-05 11:41:55-22.84484-43.2136491°66km/h3439m5.8m/s6.5°C79.1%674.7hPa0V00:00:0000:00:0000:00:00
PU1XMG-162026-09-05 11:41:50-22.84493-43.2145885°69km/h3414m5.2m/s6.6°C80.6%676.6hPa0V00:00:0000:00:0000:00:00
PU1XMG-162026-09-05 11:41:44-22.84499-43.2155891°58km/h3380m3.4m/s6.8°C82.3%679.5hPa0V00:00:0000:00:0000:00:00
PU1XMG-162026-09-05 11:41:39-22.84507-43.2164386°62km/h3354m6.1m/s6.9°C83.0%681.7hPa0V00:00:0000:00:0000:00:00
PU1XMG-162026-09-05 11:41:29-22.84519-43.2178881°51km/h3294m6.3m/s7.1°C87.5%686.9hPa0V00:00:0000:00:0000:00:00
PU1XMG-162026-09-05 11:41:24-22.84520-43.2187296°64km/h3267m6.0m/s7.3°C87.7%689.0hPa0V00:00:0000:00:0000:00:00
PU1XMG-162026-09-05 11:41:19-22.84505-43.21968105°62km/h3234m5.6m/s7.6°C85.9%691.8hPa0V00:00:0000:00:0000:00:00
PU1XMG-162026-09-05 11:41:13-22.84489-43.2204098°51km/h3210m8.9m/s7.8°C84.9%693.9hPa0V00:00:0000:00:0000:00:00
PU1XMG-162026-09-05 11:41:08-22.84478-43.22131101°46km/h3167m5.5m/s8.2°C82.0%697.7hPa0V00:00:0000:00:0000:00:00
PU1XMG-162026-09-05 11:41:02-22.84466-43.22187103°42km/h3135m7.8m/s8.5°C80.2%700.3hPa0V00:00:0000:00:0000:00:00
PU1XMG-162026-09-05 11:40:56-22.84458-43.2226996°49km/h3099m5.0m/s8.9°C78.4%703.2hPa0V00:00:0000:00:0000:00:00
PU1XMG-162026-09-05 11:40:51-22.84447-43.22328110°38km/h3071m7.1m/s9.1°C76.8%705.4hPa0V00:00:0000:00:0000:00:00
PU1XMG-162026-09-05 11:40:46-22.84433-43.22390102°57km/h3043m5.5m/s9.4°C75.8%707.7hPa0V00:00:0000:00:0000:00:00
PU1XMG-162026-09-05 11:40:40-22.84421-43.2247599°51km/h3013m4.5m/s9.6°C74.6%710.5hPa0V00:00:0000:00:0000:00:00
PU1XMG-162026-09-05 11:40:35-22.84407-43.22551102°57km/h2987m3.6m/s9.8°C74.0%712.6hPa0V00:00:0000:00:0000:00:00
PU1XMG-162026-09-05 11:40:29-22.84394-43.2264296°51km/h2957m6.5m/s10.1°C73.0%715.2hPa0V00:00:0000:00:0000:00:00
PU1XMG-162026-09-05 11:40:24-22.84383-43.22712108°53km/h2932m5.6m/s10.3°C72.3%717.6hPa0V00:00:0000:00:0000:00:00
PU1XMG-162026-09-05 11:40:18-22.84354-43.22803114°57km/h2896m5.3m/s10.7°C71.0%720.6hPa0V00:00:0000:00:0000:00:00
PU1XMG-162026-09-05 11:40:13-22.84327-43.22867114°49km/h2875m4.3m/s10.8°C70.7%722.3hPa0V00:00:0000:00:0000:00:00
PU1XMG-162026-09-05 11:40:07-22.84293-43.22949120°57km/h2844m5.7m/s11.1°C69.6%724.9hPa0V00:00:0000:00:0000:00:00
PU1XMG-162026-09-05 11:40:02-22.84264-43.23013115°44km/h2817m5.2m/s11.3°C68.5%727.3hPa0V00:00:0000:00:0000:00:00
PU1XMG-162026-09-05 11:39:57-22.84242-43.23083112°60km/h2792m6.4m/s11.5°C68.0%729.5hPa0V00:00:0000:00:0000:00:00
PU1XMG-162026-09-05 11:39:51-22.84213-43.23169106°51km/h2755m3.4m/s11.7°C68.3%732.7hPa0V00:00:0000:00:0000:00:00
PU1XMG-162026-09-05 11:39:45-22.84191-43.23259113°60km/h2726m5.3m/s11.9°C68.4%735.2hPa0V00:00:0000:00:0000:00:00
PU1XMG-162026-09-05 11:39:40-22.84158-43.23321119°46km/h2687m7.0m/s12.1°C68.9%738.4hPa0V00:00:0000:00:0000:00:00
PU1XMG-162026-09-05 11:39:34-22.84118-43.23397124°57km/h2654m8.1m/s12.5°C67.5%741.6hPa0V00:00:0000:00:0000:00:00
PU1XMG-162026-09-05 11:39:29-22.84078-43.23458122°49km/h2622m5.7m/s12.7°C66.7%744.3hPa0V00:00:0000:00:0000:00:00
PU1XMG-162026-09-05 11:39:23-22.84036-43.23530121°60km/h2587m7.6m/s12.9°C65.5%747.4hPa0V00:00:0000:00:0000:00:00
PU1XMG-162026-09-05 11:39:18-22.83990-43.23614128°49km/h2548m6.0m/s13.2°C64.0%750.5hPa0V00:00:0000:00:0000:00:00
PU1XMG-162026-09-05 11:39:11-22.83934-43.23685134°60km/h2515m6.0m/s13.5°C62.4%753.8hPa0V00:00:0000:00:0000:00:00
PU1XMG-162026-09-05 11:39:05-22.83881-43.23751133°53km/h2484m3.6m/s13.8°C61.6%756.5hPa0V00:00:0000:00:0000:00:00
PU1XMG-162026-09-05 11:38:59-22.83835-43.23816129°46km/h2448m6.7m/s14.1°C60.5%759.9hPa0V00:00:0000:00:0000:00:00
PU1XMG-162026-09-05 11:38:53-22.83792-43.23879124°51km/h2418m5.9m/s14.3°C60.1%762.6hPa0V00:00:0000:00:0000:00:00
PU1XMG-162026-09-05 11:38:48-22.83753-43.23943123°55km/h2398m4.6m/s14.4°C60.5%764.6hPa0V00:00:0000:00:0000:00:00
PU1XMG-162026-09-05 11:38:43-22.83712-43.23999130°49km/h2370m7.9m/s14.5°C62.6%767.0hPa0V00:00:0000:00:0000:00:00
PU1XMG-162026-09-05 11:38:37-22.83664-43.24057133°51km/h2337m7.0m/s14.7°C63.4%769.9hPa0V00:00:0000:00:0000:00:00
PU1XMG-162026-09-05 11:38:31-22.83614-43.24129130°60km/h2307m6.0m/s14.9°C63.0%772.8hPa0V00:00:0000:00:0000:00:00
PU1XMG-162026-09-05 11:38:26-22.83566-43.24176144°44km/h2281m4.4m/s15.1°C62.1%775.1hPa0V00:00:0000:00:0000:00:00
PU1XMG-162026-09-05 11:38:20-22.83508-43.24234134°62km/h2248m6.3m/s15.4°C60.8%778.1hPa0V00:00:0000:00:0000:00:00
PU1XMG-162026-09-05 11:38:14-22.83447-43.24299140°49km/h2212m5.0m/s15.7°C60.3%781.5hPa0V00:00:0000:00:0000:00:00
PU1XMG-162026-09-05 11:38:09-22.83408-43.24354122°53km/h2183m6.1m/s15.9°C59.5%784.0hPa0V00:00:0000:00:0000:00:00
PU1XMG-162026-09-05 11:38:04-22.83370-43.24412128°47km/h2156m7.6m/s16.2°C59.8%786.5hPa0V00:00:0000:00:0000:00:00
PU1XMG-162026-09-05 11:37:58-22.83317-43.24474133°57km/h2116m8.6m/s16.4°C59.0%790.0hPa0V00:00:0000:00:0000:00:00
PU1XMG-162026-09-05 11:37:53-22.83270-43.24529135°49km/h2085m5.6m/s16.7°C58.5%793.0hPa0V00:00:0000:00:0000:00:00
PU1XMG-162026-09-05 11:37:48-22.83227-43.24587131°62km/h2058m3.0m/s16.9°C57.4%795.2hPa0V00:00:0000:00:0000:00:00
PU1XMG-162026-09-05 11:37:42-22.83178-43.24646138°33km/h2030m4.0m/s17.1°C56.8%798.2hPa0V00:00:0000:00:0000:00:00
PU1XMG-162026-09-05 11:37:37-22.83143-43.24686138°51km/h2006m7.4m/s17.3°C56.8%800.4hPa0V00:00:0000:00:0000:00:00
PU1XMG-162026-09-05 11:37:32-22.83095-43.24730139°47km/h1980m3.9m/s17.4°C57.6%802.7hPa0V00:00:0000:00:0000:00:00
PU1XMG-162026-09-05 11:37:26-22.83047-43.24777139°47km/h1952m2.8m/s17.5°C57.8%805.5hPa0V00:00:0000:00:0000:00:00
PU1XMG-162026-09-05 11:37:21-22.82993-43.24823136°55km/h1927m5.1m/s17.6°C58.4%808.0hPa0V00:00:0000:00:0000:00:00
PU1XMG-162026-09-05 11:37:16-22.82958-43.24876125°47km/h1897m4.4m/s17.9°C58.1%810.8hPa0V00:00:0000:00:0000:00:00
PU1XMG-162026-09-05 11:37:11-22.82907-43.24938138°53km/h1866m3.1m/s18.1°C57.3%813.9hPa0V00:00:0000:00:0000:00:00
PU1XMG-162026-09-05 11:37:06-22.82856-43.24993128°53km/h1843m3.7m/s18.3°C56.8%816.1hPa0V00:00:0000:00:0000:00:00
PU1XMG-162026-09-05 11:37:00-22.82820-43.25051123°55km/h1818m7.1m/s18.5°C56.0%818.3hPa0V00:00:0000:00:0000:00:00
PU1XMG-162026-09-05 11:36:55-22.82780-43.25102146°44km/h1793m6.7m/s18.7°C56.1%820.7hPa0V00:00:0000:00:0000:00:00
PU1XMG-162026-09-05 11:36:49-22.82725-43.25156134°53km/h1757m4.3m/s18.9°C53.2%824.4hPa0V00:00:0000:00:0000:00:00
PU1XMG-162026-09-05 11:36:44-22.82673-43.25210139°58km/h1732m6.6m/s19.1°C51.9%826.5hPa0V00:00:0000:00:0000:00:00
PU1XMG-162026-09-05 11:36:39-22.82622-43.25263142°51km/h1708m7.1m/s19.3°C52.5%828.8hPa0V00:00:0000:00:0000:00:00
PU1XMG-162026-09-05 11:36:35-22.82575-43.25308135°49km/h1679m6.9m/s19.4°C54.9%831.7hPa0V00:00:0000:00:0000:00:00
PU1XMG-162026-09-05 11:36:23-22.82465-43.25427139°60km/h1626m8.7m/s19.3°C58.8%836.9hPa0V00:00:0000:00:0000:00:00
PU1XMG-162026-09-05 11:36:18-22.82416-43.25470143°42km/h1596m5.5m/s19.4°C60.0%840.0hPa0V00:00:0000:00:0000:00:00
PU1XMG-162026-09-05 11:36:13-22.82367-43.25503147°55km/h1568m6.5m/s19.5°C60.4%842.6hPa0V00:00:0000:00:0000:00:00
PU1XMG-162026-09-05 11:36:07-22.82301-43.25547160°47km/h1526m7.8m/s19.5°C61.8%846.4hPa0V00:00:0000:00:0000:00:00
PU1XMG-162026-09-05 11:36:01-22.82230-43.25586157°60km/h1495m4.5m/s19.3°C65.3%849.3hPa0V00:00:0000:00:0000:00:00
PU1XMG-162026-09-05 11:35:56-22.82162-43.25616161°60km/h1474m3.2m/s19.3°C66.1%851.4hPa0V00:00:0000:00:0000:00:00
PU1XMG-162026-09-05 11:35:50-22.82086-43.25652166°53km/h1445m6.3m/s19.1°C68.0%854.2hPa0V00:00:0000:00:0000:00:00
PU1XMG-162026-09-05 11:35:44-22.82030-43.25668156°38km/h1415m2.2m/s18.7°C73.0%857.3hPa0V00:00:0000:00:0000:00:00
PU1XMG-162026-09-05 11:35:38-22.81985-43.25684165°18km/h1383m4.1m/s18.7°C74.8%860.6hPa0V00:00:0000:00:0000:00:00
PU1XMG-162026-09-05 11:35:32-22.81940-43.25695167°40km/h1349m6.9m/s18.9°C75.7%864.0hPa0V00:00:0000:00:0000:00:00
PU1XMG-162026-09-05 11:35:26-22.81888-43.25699170°35km/h1319m6.4m/s19.1°C75.3%867.1hPa0V00:00:0000:00:0000:00:00
PU1XMG-162026-09-05 11:35:20-22.81830-43.25720167°42km/h1289m7.0m/s19.3°C74.3%870.2hPa0V00:00:0000:00:0000:00:00
PU1XMG-162026-09-05 11:35:14-22.81775-43.25725172°42km/h1258m4.1m/s19.4°C74.6%873.3hPa0V00:00:0000:00:0000:00:00
PU1XMG-162026-09-05 11:35:09-22.81723-43.25729188°38km/h1227m4.6m/s19.5°C74.8%876.5hPa0V00:00:0000:00:0000:00:00
PU1XMG-162026-09-05 11:35:03-22.81658-43.25723186°38km/h1197m7.6m/s19.7°C74.2%879.6hPa0V00:00:0000:00:0000:00:00
PU1XMG-162026-09-05 11:34:57-22.81596-43.25718193°47km/h1163m2.5m/s19.7°C75.2%882.9hPa0V00:00:0000:00:0000:00:00
PU1XMG-162026-09-05 11:34:52-22.81546-43.25697201°44km/h1138m3.5m/s19.5°C75.9%885.6hPa0V00:00:0000:00:0000:00:00
PU1XMG-162026-09-05 11:34:46-22.81473-43.25685174°46km/h1109m4.9m/s19.2°C74.8%888.4hPa0V00:00:0000:00:0000:00:00
PU1XMG-162026-09-05 11:34:40-22.81399-43.25684185°40km/h1084m4.7m/s19.4°C73.5%891.1hPa0V00:00:0000:00:0000:00:00
PU1XMG-162026-09-05 11:34:35-22.81358-43.25679186°29km/h1052m4.2m/s19.4°C72.1%894.1hPa0V00:00:0000:00:0000:00:00
PU1XMG-162026-09-05 11:34:30-22.81318-43.25669186°31km/h1024m5.7m/s19.5°C70.8%897.1hPa0V00:00:0000:00:0000:00:00
PU1XMG-162026-09-05 11:34:24-22.81284-43.25665184°27km/h991m2.9m/s19.3°C69.8%900.5hPa0V00:00:0000:00:0000:00:00
PU1XMG-162026-09-05 11:34:19-22.81253-43.25661188°20km/h964m7.8m/s18.6°C70.1%903.6hPa0V00:00:0000:00:0000:00:00
PU1XMG-162026-09-05 11:34:14-22.81233-43.25648223°22km/h930m7.4m/s19.0°C67.1%907.1hPa0V00:00:0000:00:0000:00:00
PU1XMG-162026-09-05 11:34:09-22.81210-43.25616222°31km/h901m4.7m/s19.2°C62.2%910.2hPa0V00:00:0000:00:0000:00:00
PU1XMG-162026-09-05 11:34:03-22.81180-43.25582224°27km/h867m5.2m/s19.3°C55.9%914.0hPa0V00:00:0000:00:0000:00:00
PU1XMG-162026-09-05 11:33:58-22.81163-43.25553254°18km/h839m4.8m/s19.5°C54.2%916.8hPa0V00:00:0000:00:0000:00:00
PU1XMG-162026-09-05 11:33:53-22.81147-43.25525243°29km/h814m5.8m/s19.4°C55.9%919.7hPa0V00:00:0000:00:0000:00:00
PU1XMG-162026-09-05 11:33:47-22.81120-43.25484242°27km/h781m3.8m/s19.1°C60.1%923.1hPa0V00:00:0000:00:0000:00:00
PU1XMG-162026-09-05 11:33:41-22.81097-43.25451227°29km/h750m4.2m/s18.8°C69.2%926.7hPa0V00:00:0000:00:0000:00:00
PU1XMG-162026-09-05 11:33:36-22.81073-43.25426224°20km/h718m8.5m/s18.7°C74.1%929.8hPa0V00:00:0000:00:0000:00:00
PU1XMG-162026-09-05 11:33:30-22.81061-43.25406256°18km/h678m6.3m/s18.7°C0%933.9hPa0V00:00:0000:00:0000:00:00
PU1XMG-162026-09-05 11:33:24-22.81048-43.25369231°24km/h648m5.5m/s18.9°C0%937.3hPa0V00:00:0000:00:0000:00:00
PU1XMG-162026-09-05 11:33:18-22.81030-43.25343248°18km/h608m7.9m/s19.1°C0%941.6hPa0V00:00:0000:00:0000:00:00
PU1XMG-162026-09-05 11:33:13-22.81022-43.25323228°18km/h580m4.1m/s19.2°C0%0hPa0V00:00:0000:00:0000:00:00
PU1XMG-162026-09-05 11:33:08-22.81010-43.25302247°18km/h547m6.4m/s19.4°C0%0hPa0V00:00:0000:00:0000:00:00
PU1XMG-162026-09-05 11:33:03-22.80997-43.25275229°22km/h524m3.1m/s19.5°C0%0hPa0V00:00:0000:00:0000:00:00
PU1XMG-162026-09-05 11:32:57-22.80973-43.25247211°16km/h490m6.4m/s19.6°C0%0hPa0V00:00:0000:00:0000:00:00
PU1XMG-162026-09-05 11:32:52-22.80952-43.25243206°15km/h467m4.8m/s19.6°C0%0hPa0V00:00:0000:00:0000:00:00
PU1XMG-162026-09-05 11:32:47-22.80942-43.25221246°26km/h442m5.8m/s19.4°C0%0hPa0V00:00:0000:00:0000:00:00
PU1XMG-162026-09-05 11:32:41-22.80944-43.25196319°7km/h410m5.1m/s19.5°C0%0hPa0V00:00:0000:00:0000:00:00
PU1XMG-162026-09-05 11:32:36-22.80941-43.25188244°18km/h381m4.9m/s0°C0%0hPa0V00:00:0000:00:0000:00:00
PU1XMG-162026-09-05 11:32:29-22.80924-43.25152246°20km/h340m5.6m/s0°C0%0hPa0V00:00:0000:00:0000:00:00
PU1XMG-162026-09-05 11:32:24-22.80916-43.25142259°7km/h312m6.8m/s0°C0%0hPa0V00:00:0000:00:0000:00:00
PU1XMG-162026-09-05 11:32:18-22.80908-43.25120271°15km/h290m4.0m/s0°C0%0hPa0V00:00:0000:00:0000:00:00
PU1XMG-162026-09-05 11:32:12-22.80895-43.25099274°7km/h267m5.8m/s0°C0%0hPa0V00:00:0000:00:0000:00:00
PU1XMG-162026-09-05 11:32:07-22.80906-43.25072262°9km/h237m6.9m/s0°C0%0hPa0V00:00:0000:00:0000:00:00


GPX KML Map

© wettersonde.net (DO2JMG) - 2026  -  -